Water and Atmospheric Resources Monitoring Program - , Illinois State Water Survey

Water and Atmospheric Resources Monitoring Program (WARM)

Weather Soil Groundwater Sediment Streamflow Reservoirs

#124 Kankakee (USGS #5527500)


Instantaneous Suspended Sediment Measurements

Date Time    Gage Ht. Temp Cs Qw Qs Final F
i
n
a
l
     (feet) (C) (mg/l) (cfs) (t/d)  
10/7/1982 12:00    2.54 19 80.00 6998 1,512.0 True x
10/15/1982 09:25    2.55 12 78.00 7048 1,484.0 True x
10/20/1982 20:00    2.56 63.00 7097 1,207.0 True x
10/29/1982 10:00    2.50 11 49.00 6800 899.7 True x
11/2/1982 11:20    2.84 13 71.00 8548 1,639.0 True x
12/2/1982 11:05    5.51 10 149.00 28530 11,480.0 True x
12/9/1982 11:35    7.02 79.00 44230 9,434.0 True x
3/11/1983 15:10    3.65 65.00 13520 2,372.0 True x
3/12/1983 14:50    3.65 14.00 13520 510.9 True x
3/13/1983 14:00    3.63 9.00 13380 325.1 True x
3/14/1983 14:10    3.60 16.00 13170 568.9 True x
3/15/1983 15:30    3.57 8.00 12970 280.2 True x
3/16/1983 14:45    3.53 10.00 12710 343.1 True x
3/17/1983 14:45    3.50 27.00 12510 912.0 True x
3/18/1983 14:40    3.55 20.00 12840 693.4 True x
3/19/1983 15:30    4.07 20.00 16510 891.6 True x
3/20/1983 15:00    4.41 14.00 19110 722.3 True x
3/21/1983 14:45    4.59 32.00 20550 1,775.0 True x
3/22/1983 14:50    4.54 44.00 20140 2,393.0 True x
3/23/1983 14:40    4.40 27.00 19030 1,387.0 True x
3/24/1983 14:25    4.34 15.00 18560 751.8 True x
3/25/1983 14:35    4.25 35.00 17860 1,688.0 True x
3/26/1983 14:15    4.23 15.00 17710 717.3 True x
3/27/1983 14:30    4.47 19.00 19580 1,005.0 True x
3/28/1983 14:50    5.12 37.00 25040 2,501.0 True x
3/29/1983 14:55    5.30 92.00 26620 6,613.0 True x
3/30/1983 15:00    5.25 106.00 26180 7,493.0 True x
3/31/1983 15:00    5.07 69.00 24600 4,584.0 True x
4/1/1983 14:30    4.91 49.00 23220 3,072.0 True x
4/2/1983 10:15    6.12 130.00 34430 12,080.0 True x
4/2/1983 15:20    6.61 369.00 39630 39,490.0 True x
4/3/1983 09:10    7.52 456.00 50080 61,680.0 True x
4/3/1983 16:05    7.43 341.00 49010 45,130.0 True x
4/4/1983 10:38    6.99 180.00 43890 21,330.0 True x
4/4/1983 16:00    6.96 163.00 43540 19,170.0 True x
4/5/1983 14:30    6.76 162.00 41290 18,060.0 True x
4/6/1983 14:50    6.66 101.00 40180 10,960.0 True x
4/7/1983 14:40    6.39 58.00 37240 5,833.0 True x
4/8/1983 14:20    6.09 49.00 34120 4,514.0 True x
4/9/1983 14:15    6.50 90.00 38430 9,339.0 True x
4/10/1983 14:40    6.48 106.00 38210 10,940.0 True x
4/11/1983 14:43    6.19 52.00 35150 4,935.0 True x
4/12/1983 14:50    5.97 10 48.00 32910 4,265.0 True x
4/13/1983 11:35    5.78 10 42.00 31070 3,523.0 True x
4/14/1983 10:40    7.02 10 312.00 44230 37,260.0 True x
4/14/1983 14:20    7.27 10 442.00 47110 56,240.0 True x
4/15/1983 14:40    6.87 251.00 42520 28,820.0 True x
4/16/1983 14:28    6.61 131.00 39630 14,020.0 True x
4/17/1983 15:45    6.45 158.00 37890 16,170.0 True x
4/18/1983 14:45    6.26 63.00 35880 6,103.0 True x
4/19/1983 14:33    5.97 34.00 32910 3,021.0 True x
4/20/1983 14:10    5.51 33.00 28530 2,542.0 True x
4/21/1983 17:10    5.22 32.00 25920 2,239.0 True x
4/22/1983 14:38    5.12 32.00 25040 2,163.0 True x
4/23/1983 14:10    4.99 33.00 23910 2,131.0 True x
4/24/1983 14:33    4.87 35.00 22880 2,162.0 True x
4/25/1983 14:40    4.80 10 32.00 22280 1,925.0 True x
4/26/1983 14:08    4.72 11 34.00 21620 1,984.0 True x
4/27/1983 15:05    4.58 12 27.00 20470 1,492.0 True x
4/28/1983 14:43    4.59 12 26.00 20550 1,443.0 True x
4/29/1983 15:15    4.52 13 35.00 19980 1,888.0 True x
4/30/1983 15:30    5.28 13 50.00 26440 3,570.0 True x
5/1/1983 14:00    5.65 11 190.00 29830 15,300.0 True x
5/2/1983 10:00    8.41 10 1,240.00 61190 205,020.0 True x
5/2/1983 14:18    8.59 10 1,395.00 63530 239,320.0 True x
5/3/1983 10:04    7.80 504.00 53500 72,830.0 True x
5/3/1983 15:17    7.64 10 359.00 51530 49,960.0 True x
5/4/1983 14:11    7.65 11 669.00 51660 93,340.0 True x
5/5/1983 14:42    7.50 12 415.00 49840 55,860.0 True x
5/6/1983 14:12    7.22 13 162.00 46530 20,360.0 True x
5/7/1983 13:30    6.74 14 100.00 41060 11,090.0 True x
5/8/1983 15:40    6.26 13 83.00 35880 8,041.0 True x
5/9/1983 14:18    5.85 13 84.00 31740 7,199.0 True x
5/10/1983 14:00    5.60 14 67.00 29360 5,311.0 True x
5/11/1983 14:43    5.31 15 64.00 26710 4,616.0 True x
5/12/1983 13:58    5.18 15 65.00 25560 4,487.0 True x
5/13/1983 14:53    5.04 16 56.00 24340 3,681.0 True x
5/14/1983 14:27    5.10 15 57.00 24860 3,826.0 True x
5/15/1983 16:40    5.12 15 54.00 25040 3,650.0 True x
5/16/1983 14:38    5.17 15 63.00 25480 4,334.0 True x
5/17/1983 15:55    5.12 14 71.00 25040 4,800.0 True x
5/18/1983 15:07    5.01 14 63.00 24090 4,097.0 True x
5/19/1983 14:42    4.94 15 53.00 23480 3,360.0 True x
5/20/1983 15:57    5.12 16 57.00 25040 3,853.0 True x
5/21/1983 15:07    5.29 16 85.00 26530 6,089.0 True x
5/22/1983 13:58    5.28 15 130.00 26440 9,283.0 True x
5/23/1983 14:50    5.19 16 96.00 25650 6,649.0 True x
5/24/1983 14:24    5.10 17 81.00 24860 5,437.0 True x
5/25/1983 14:48    4.92 17 111.00 23300 6,985.0 True x
5/26/1983 14:06    4.73 17 107.00 21700 6,269.0 True x
5/27/1983 14:18    4.53 15 69.00 20060 3,738.0 True x
5/28/1983 12:40    4.47 13 56.00 19580 2,961.0 True x
5/29/1983 14:00    4.38 15 51.00 18870 2,599.0 True x
5/30/1983 14:51    4.30 14 53.00 18250 2,612.0 True x
5/31/1983 13:58    4.25 13 48.00 17860 2,315.0 True x
6/1/1983 14:28    4.17 15 45.00 17250 2,097.0 True x
6/2/1983 14:22    4.10 14 35.00 16730 1,581.0 True x
6/3/1983 14:15    4.10 14 34.00 16730 1,536.0 True x
6/4/1983 14:47    4.06 17 39.00 16440 1,731.0 True x
6/5/1983 12:32    4.05 17 36.00 16370 1,591.0 True x
6/6/1983 15:10    4.00 18 45.00 16000 1,944.0 True x
6/7/1983 13:58    3.96 18 41.00 15710 1,739.0 True x
6/8/1983 16:00    3.86 19 38.00 14990 1,538.0 True x
6/9/1983 14:42    3.82 19 35.00 14700 1,389.0 True x
6/10/1983 14:44    3.77 20 27.00 14350 1,046.0 True x
6/11/1983 14:33    3.70 22 29.00 13860 1,085.0 True x
6/12/1983 14:48    3.64 23 37.00 13450 1,343.0 True x
6/13/1983 14:36    3.60 24 32.00 13170 1,138.0 True x
6/14/1983 14:07    3.54 24 24.00 12770 827.8 True x
6/15/1983 13:50    3.56 24 32.00 12910 1,115.0 True x
6/16/1983 20:15    3.50 23 27.00 12510 912.0 True x
6/17/1983 15:01    3.50 25 22.00 12510 743.1 True x
6/18/1983 17:05    3.45 24 21.00 12190 690.9 True x
6/19/1983 14:45    3.45 24 17.00 12190 559.3 True x
6/20/1983 17:57    3.42 24 26.00 11990 841.7 True x
6/21/1983 15:05    3.47 26 22.00 12320 731.5 True x
6/22/1983 14:10    3.55 26 29.00 12840 1,005.0 True x
6/23/1983 14:54    3.44 27 28.00 12120 916.3 True x
6/24/1983 14:00    3.32 20 28.00 11350 857.9 True x
6/25/1983 16:15    3.20 28 21.00 10600 601.0 True x
7/9/1983 16:22    3.95 25 65.00 15640 2,744.0 True x
7/10/1983 16:15    3.85 25 57.00 14920 2,295.0 True x
7/11/1983 14:31    3.72 25 43.00 14000 1,625.0 True x
7/12/1983 14:48    3.60 26 35.00 13170 1,245.0 True x
7/13/1983 15:16    3.48 27 29.00 12380 969.4 True x
7/14/1983 14:31    3.40 27 25.00 11860 800.6 True x
7/15/1983 15:35    3.33 27 26.00 11410 801.1 True x
7/16/1983 15:21    3.24 28 22.00 10850 644.4 True x
7/17/1983 14:25    3.16 28 17.00 10360 475.5 True x
7/18/1983 14:14    3.11 27 18.00 10060 488.9 True x
7/19/1983 14:42    3.06 29 17.00 9772 448.5 True x
7/20/1983 13:43    3.04 29 16.00 9657 417.2 True x
7/21/1983 13:45    3.02 30 15.00 9543 386.5 True x
7/22/1983 18:20    3.00 31 15.00 9429 381.9 True x
7/23/1983 14:20    2.98 29 15.00 9318 377.4 True x
7/24/1983 18:30    2.91 28 19.00 8929 458.0 True x
7/25/1983 16:00    2.88 27 17.00 8765 402.3 True x
7/26/1983 15:50    2.79 27 16.00 8279 357.7 True x
7/27/1983 15:03    2.79 27 14.00 8279 313.0 True x
7/28/1983 15:00    2.78 28 20.00 8227 444.3 True x
7/29/1983 15:15    2.74 28 22.00 8016 476.2 True x
7/30/1983 14:25    2.96 28 15.00 9207 372.9 True x
7/31/1983 14:43    3.25 28 13.00 10910 382.9 True x
8/1/1983 16:00    2.92 26 17.00 8984 412.4 True x
8/8/1983 19:30    2.68 28 36.00 7704 748.8 True x
8/15/1983 16:20    2.56 26 50.00 7097 958.1 True x
8/22/1983 15:59    2.63 27 37.00 7448 744.1 True x
8/30/1983 09:50    2.51 30 34.00 6850 628.8 True x
9/14/1983 14:00    2.32 21 46.00 6007 746.1 True x
11/4/1983 09:45    2.59 14.00 6928 262.0 True x
11/30/1983 11:00    4.43 163.00 18650 8,208.0 True x
12/13/1983 10:20    6.24 269.00 35100 25,493.0 True x
2/16/1984 12:30    7.47 159.00 38920 16,708.0 True x
2/22/1984 17:00    5.60 27.00 28750 2,096.0 True x
3/2/1984 12:00    3.83 5.00 14260 193.0 True x
3/9/1984 13:30    3.62 51.00 12850 1,769.0 True x
3/16/1984 14:45    5.45 207.00 27340 15,280.0 True x
3/21/1984 16:10    7.63 174.00 50870 23,899.0 True x
3/28/1984 15:45    7.03 169.00 43740 19,959.0 True x
4/3/1984 13:30    5.05 55.00 23760 3,528.0 True x
4/12/1984 13:45    4.22 10 62.00 17060 2,856.0 True x
4/19/1984 12:35    4.46 19.00 18890 969.0 True x
4/26/1984 10:00    5.31 10 120.00 26060 8,443.0 True x
5/2/1984 15:50    4.30 14 27.00 17660 1,287.0 True x
5/10/1984 10:15    3.93 12 18.00 14960 727.0 True x
5/17/1984 14:15    3.71 17 9.00 13450 327.0 True x
5/24/1984 11:30    7.02 17 292.00 43620 34,390.0 True x
5/30/1984 16:00    7.15 14 201.00 45130 24,492.0 True x
6/5/1984 13:25    4.75 21 98.00 21220 5,615.0 True x
6/12/1984 13:15    4.19 24 109.00 16830 4,953.0 True x
6/23/1984 16:40    3.88 26 179.00 14610 7,061.0 True x
6/28/1984 13:10    3.72 23 81.00 13510 2,955.0 True x
7/5/1984 11:55    3.23 24 66.00 10410 1,855.0 True x
7/11/1984 13:15    3.08 23 42.00 9539 1,082.0 True x
7/19/1984 13:20    2.80 25 62.00 8001 1,339.0 True x
7/26/1984 12:40    2.63 22 53.00 7127 1,020.0 True x
8/2/1984 11:25    2.64 26 33.00 7177 639.0 True x
8/8/1984 08:14    2.59 27 22.00 6928 411.0 True x
8/17/1984 09:30    2.45 25 26.00 6253 439.0 True x
8/21/1984 08:40    2.38 23 41.00 5928 656.0 True x
8/29/1984 11:45    2.26 27 36.00 6781 659.0 True x
9/5/1984 09:05    2.28 19 49.00 5476 724.0 True x
9/12/1984 09:00    2.27 21 38.00 5432 557.0 True x
9/21/1984 14:00    2.35 21 27.00 5790 422.0 True x
9/27/1984 16:10    2.34 14 59.00 5745 915.0 True x
10/4/1984 14:50    2.39 16 15.00 5974 242.0 True x
10/10/1984 16:30    2.48 17 37.00 6395 639.0 True x
10/17/1984 09:00    2.57 15 19.00 6830 350.0 True x
10/26/1984 08:15    2.91 11 36.00 8590 835.0 True x
11/2/1984 16:00    2.89 16.00 8481 366.0 True x
11/9/1984 14:00    3.01 14.00 9143 346.0 True x
11/14/1984 13:40    3.75 53.00 13720 1,963.0 True x
11/21/1984 08:30    3.21 29.00 10300 806.0 True x
11/29/1984 11:15    3.47 79.00 11890 2,536.0 True x
12/6/1984 14:00    3.28 20.00 10710 578.0 True x
12/13/1984 09:25    3.25 26.00 10530 739.0 True x
12/18/1984 09:00    3.91 41.00 14820 1,641.0 True x
12/28/1984 12:15    4.01 28.00 15520 1,173.0 True x
1/3/1985 09:00    6.63 346.00 39260 36,677.0 True x
1/9/1985 09:00    4.89 37.00 22390 2,237.0 True x
2/24/1985 11:40    10.10 712.00 85360 164,096.0 True x
2/27/1985 13:30    8.46 239.00 61550 39,718.0 True x
3/5/1985 14:00    7.70 363.00 51740 50,710.0 True x
3/14/1985 12:00    6.49 277.00 37740 28,226.0 True x
3/18/1985 12:30    5.56 105.00 28370 8,043.0 True x
3/28/1985 12:00    5.02 11 135.00 23500 8,566.0 True x
4/3/1985 13:00    6.25 177.00 35210 16,827.0 True x
4/11/1985 14:30    5.67 53.00 29410 4,209.0 True x
4/18/1985 17:00    4.91 17 44.00 22550 2,679.0 True x
4/24/1985 18:30    4.45 16 149.00 18810 7,567.0 True x
5/2/1985 12:20    3.92 16 70.00 14890 2,814.0 True x
5/9/1985 17:30    3.55 22 78.00 12400 2,611.0 True x
5/16/1985 18:00    3.35 19 76.00 11140 2,286.0 True x
6/5/1985 13:55    1.65 21 68.00 2925 537.0 True x
6/13/1985 12:30    1.41 19 39.00 2135 225.0 True x
6/19/1985 11:30    1.77 21 3.00 3367 27.0 True x
6/28/1985 13:00    1.39 24 23.00 2075 129.0 True x
7/3/1985 12:10    1.30 25 48.00 1814 235.0 True x
7/9/1985 17:00    1.26 29 17.00 1704 78.0 True x
7/17/1985 15:40    1.20 29 63.00 1545 263.0 True x
7/22/1985 14:20    0.93 27 41.00 927 103.0 True x
7/26/1985 16:00    1.00 29 81.00 1073 235.0 True x
8/3/1985 10:20    0.95 26 69.00 968 180.0 True x
8/9/1985 14:15    1.44 27 81.00 2227 487.0 True x
8/16/1985 15:25    1.53 26 33.00 2514 224.0 True x
8/23/1985 14:35    1.29 24 28.00 1786 135.0 True x
8/29/1985 11:50    1.13 26 88.00 1370 325.0 True x
9/5/1985 18:50    1.00 27 82.00 1073 238.0 True x
9/12/1985 13:00    1.06 21 62.00 1205 202.0 True x
9/15/1985 13:30    1.10 20 78.00 1298 273.0 True x
9/22/1985 16:30    1.04 21 58.00 1160 182.0 True x
9/29/1985 16:20    0.97 19 71.00 1009 193.0 True x
10/6/1985 11:30    1.06 13 51.00 1205 166.0 True x
10/13/1985 16:40    0.99 18 77.00 1051 218.0 True x
10/19/1985 14:45    1.51 16 65.00 2449 430.0 True x
10/27/1985 13:55    1.84 16 25.00 3639 246.0 True x
11/4/1985 15:55    2.00 10 97.00 4300 1,126.0 True x
11/10/1985 14:05    2.15 74.00 4914 982.0 True x
11/12/1985 13:00    3.10 147.00 9654 3,832.0 True x
11/18/1985 11:50    4.80 10 163.00 21630 9,519.0 True x
11/24/1985 11:10    5.92 137.00 31850 11,781.0 True x
12/1/1985 12:23    4.50 63.00 19200 3,266.0 True x
12/8/1985 15:40    3.00 64.00 9087 1,570.0 True x
12/14/1985 15:30    4.73 185.00 21050 10,514.0 True x
2/24/1986 13:00    3.49 33.00 12010 1,070.0 True x
2/25/1986 13:55    3.06 25.00 9425 636.0 True x
3/8/1986 14:20    3.47 85.00 11890 2,729.0 True x
3/15/1986 14:45    3.33 68.00 11020 2,023.0 True x
3/22/1986 14:50    3.14 49.00 9885 1,308.0 True x
3/29/1986 18:00    2.46 16 45.00 6300 765.0 True x
4/6/1986 17:40    2.11 17 32.00 4747 410.0 True x
4/13/1986 17:05    1.98 15 26.00 4214 296.0 True x
4/20/1986 18:15    1.97 14 29.00 4172 327.0 True x
4/23/1986 15:00    1.95 13 23.00 4087 254.0 True x
4/27/1986 16:51    1.82 24 19.00 3560 183.0 True x
5/4/1986 15:55    4.32 17 290.00 17810 13,945.0 True x
5/11/1986 14:10    2.50 19 200.00 6491 3,505.0 True x
5/18/1986 15:50    2.79 18 270.00 7948 5,794.0 True x
5/20/1986 14:50    2.99 16 240.00 9031 5,852.0 True x
5/25/1986 15:15    2.17 21 157.00 4999 2,119.0 True x
6/1/1986 14:00    3.75 24 726.00 13720 26,894.0 True x
6/8/1986 17:45    4.25 23 428.00 17280 19,969.0 True x
6/16/1986 15:55    3.40 23 112.00 11450 3,462.0 True x
6/22/1986 18:15    2.52 27 207.00 6587 3,681.0 True x
6/30/1986 16:53    2.33 23 154.00 5700 2,370.0 True x
7/7/1986 16:45    2.81 28 108.00 8053 2,348.0 True x
7/14/1986 17:12    3.87 26 237.00 14540 9,304.0 True x
7/21/1986 16:06    1.94 29 133.00 4045 1,453.0 True x
7/22/1986 15:00    1.81 30 69.00 3521 656.0 True x
7/29/1986 09:54    1.51 30 45.00 2449 297.0 True x
8/6/1986 13:20    1.52 23 23.00 2482 154.0 True x
8/13/1986 16:39    1.20 22 44.00 1545 183.0 True x
8/20/1986 13:54    1.09 26 37.00 1275 127.0 True x
8/28/1986 11:19    1.02 19 44.00 1116 133.0 True x
9/3/1986 16:34    0.99 26 51.00 1051 145.0 True x
9/8/1986 13:20    0.91 21 50.00 888 120.0 True x
9/11/1986 13:30    0.97 20 76.00 1009 207.0 True x
9/18/1986 11:42    0.95 28 94.00 968 246.0 True x
9/26/1986 11:07    1.37 22 63.00 2015 343.0 True x
10/3/1986 11:42    3.03 19 112.00 9255 2,798.7 True x
10/11/1986 14:56    3.25 13 46.00 10530 1,307.8 True x
10/18/1986 10:17    2.39 10 92.00 5974 1,483.9 True x
10/22/1986 11:15    2.04 15 109.00 4460 1,312.6 True x
10/22/1986 12:40    2.04 15 122.00 4460 1,469.1 True x
10/27/1986 10:40    2.31 12 62.00 5610 939.1 True x
11/3/1986 10:03    2.09 107.00 4664 1,347.4 True x
11/10/1986 14:59    1.79 122.00 3443 1,134.1 True x
11/17/1986 12:28    1.66 122.00 2961 975.4 True x
11/25/1986 09:30    1.95 31.00 4087 342.1 True x
11/28/1986 15:40    4.00 123.00 15450 5,130.9 True x
12/2/1986 10:40    3.35 36.00 11140 1,082.8 True x
12/13/1986 12:40    3.15 77.00 9943 2,067.1 True x
12/17/1986 10:45    2.52 32.00 6587 569.1 True x
12/17/1986 12:10    2.52 26.00 6587 462.4 True x
12/19/1986 10:40    2.40 30.00 6020 487.6 True x
12/26/1986 11:25    2.18 31.00 5041 421.9 True x
1/3/1987 14:02    1.94 22.00 4045 240.3 True x
1/10/1987 14:18    1.91 46.00 3921 487.0 True x
1/16/1987 15:15    2.06 19.00 4541 233.0 True x
2/6/1987 14:00    1.97 69.00 4172 777.2 True x
2/26/1987 11:33    2.05 20.00 4460 240.8 True x
3/3/1987 11:57    2.50 35.00 6491 613.4 True x
3/5/1987 13:50    2.53 25.00 6587 444.6 True x
3/5/1987 15:10    2.53 40.00 6587 711.4 True x
3/12/1987 10:41    2.20 60.00 5127 830.6 True x
3/19/1987 10:24    1.94 59.00 4045 644.4 True x
3/31/1987 12:00    1.77 37.00 3367 336.4 True x
4/8/1987 15:35    1.59 13 49.00 2716 359.3 True x
4/15/1987 15:28    3.04 11 73.00 9311 1,835.2 True x
4/16/1987 10:30    3.43 12 102.00 11630 3,202.9 True x
4/16/1987 11:50    3.43 12 107.00 11630 3,359.9 True x
4/28/1987 18:05    2.17 16 75.00 4999 1,012.3 True x
5/5/1987 12:28    1.81 16 79.00 3521 751.0 True x
5/12/1987 18:13    1.60 20 68.00 2750 504.9 True x
5/19/1987 10:45    4.70 23 501.00 20810 28,149.7 True x
5/20/1987 14:40    5.27 23 711.00 25700 49,336.3 True x
5/20/1987 16:00    5.18 24 677.00 24900 45,514.7 True x
5/22/1987 09:20    4.31 20 234.00 17660 11,157.6 True x
5/26/1987 15:50    4.50 22 319.00 19200 16,537.0 True x
6/2/1987 13:17    3.36 23 274.00 11200 8,285.8 True x
6/4/1987 12:14    4.01 21 389.00 15520 16,300.7 True x
6/9/1987 16:28    2.51 22 126.00 6491 2,208.2 True x
6/16/1987 15:30    1.85 27 101.00 3678 1,003.0 True x
6/23/1987 10:28    2.72 23 212.00 7584 4,341.1 True x
7/1/1987 14:50    1.69 22 99.00 3069 820.3 True x
7/8/1987 09:46    1.55 25 72.00 2581 501.7 True x
7/15/1987 11:15    1.40 22 79.00 2105 449.0 True x
7/21/1987 14:57    1.31 28 36.00 1842 179.0 True x
7/22/1987 10:15    1.26 28 33.00 1704 151.8 True x
7/22/1987 11:40    1.26 29 34.00 1704 156.4 True x
7/29/1987 14:24    0.89 28 73.00 849 167.4 True x
8/6/1987 15:59    1.21 26 90.00 1571 381.8 True x
8/13/1987 13:58    0.98 27 33.00 1030 91.8 True x
8/20/1987 10:15    0.91 25 26.00 888 62.3 True x
8/26/1987 16:50    1.21 22 33.00 1571 140.0 True x
9/4/1987 13:27    1.14 21 81.00 1370 299.6 True x
9/10/1987 14:31    1.05 23 66.00 1183 210.8 True x
9/18/1987 12:40    1.09 20 64.00 1275 220.3 True x
9/24/1987 16:46    1.08 19 75.00 1251 253.3 True x
9/25/1987 13:45    1.08 19 80.00 1251 270.2 True x
9/25/1987 15:00    1.07 19 84.00 1228 278.5 True x
10/2/1987 13:35    0.94 13 105.00 947 268.6 True x
10/8/1987 15:46    1.10 11 106.00 1298 371.5 True x
10/28/1987 11:07    1.29 105.00 1786 506.3 True x
11/3/1987 15:25    1.37 15 104.00 2015 565.8 True x
11/3/1987 16:35    1.37 15 96.00 2015 522.3 True x
11/22/1987 16:00    1.15 39.00 1395 146.9 True x
11/28/1987 15:00    1.54 62.00 2547 426.4 True x
12/11/1987 13:27    3.00 96.00 9087 2,355.4 True x
12/19/1987 14:25    3.35 84.00 11140 2,526.6 True x
12/24/1987 15:00    4.39 106.00 18270 5,228.9 True x
12/24/1987 16:00    4.39 108.00 18270 5,327.5 True x
12/26/1987 11:02    3.92 60.00 14890 2,412.2 True x
1/2/1988 13:31    3.80 66.00 14060 2,505.5 True x
2/3/1988 07:45    3.45 64.00 11760 2,032.1 True x
2/26/1988 14:43    4.42 60.00 18580 3,010.0 True x
3/4/1988 14:30    2.17 59.00 4999 796.3 True x
3/10/1988 15:50    2.28 68.00 5432 997.3 True x
3/10/1988 16:50    2.38 80.00 5928 1,280.4 True x
4/6/1988 15:50    4.36 13 111.00 18110 5,427.6 True x
4/6/1988 17:10    4.36 13 112.32 18110 3,960.7 False x
6/9/1988 15:30    1.12 22 115.00 1346 418.1 True x
6/9/1988 16:40    1.12 22 132.00 1346 480.1 True x
7/4/1988 14:00    0.76 27 9.00 619 15.0 True x
7/20/1988 14:10    0.53 25 15.00 310 13.3 True x
7/27/1988 17:45    0.61 28 19.00 407 21.1 True x
8/3/1988 12:58    0.47 31 12.00 244 8.5 True x
8/5/1988 09:00    0.47 29 12.00 244 8.4 True x
8/5/1988 10:20    0.45 31 12.00 224 7.7 True x
8/8/1988 15:55    0.40 31 9.00 177 4.7 True x
8/17/1988 14:39    0.58 32 15.00 357 15.0 True x
8/25/1988 14:03    0.52 25 8.00 299 7.1 True x
9/2/1988 14:40    0.63 24 7.00 432 8.2 True x
9/9/1988 10:45    0.68 20 47.00 497 63.9 True x
9/19/1988 17:10    0.92 21 22.00 907 54.3 True x
9/25/1988 17:30    0.94 19 46.00 947 119.8 True x
10/1/1988 16:20    1.01 20 36.00 1094 108.3 True x
10/7/1988 15:25    0.93 16 73.00 927 183.5 True x
10/7/1988 16:40    0.93 16 51.00 927 128.3 True x
10/8/1988 16:15    0.92 14 42.00 907 104.6 True x
10/15/1988 13:55    0.88 14 36.00 830 82.3 True x
10/24/1988 14:25    1.41 31.00 2135 181.4 True x
11/1/1988 14:28    1.29 92.00 1786 444.2 True x
11/6/1988 15:18    1.27 93.00 1731 435.1 True x
11/15/1988 10:25    2.14 21.00 4872 277.4 True x
11/20/1988 14:20    2.61 32.00 7027 621.4 True x
11/28/1988 11:10    2.43 66.00 6159 1,109.7 True x
12/6/1988 10:00    2.02 87.00 4380 1,039.2 True x
12/14/1988 12:40    1.73 100.00 3216 872.7 True x
12/20/1988 13:40    1.91 84.00 3921 890.8 True x
12/20/1988 14:10    1.91 97.00 3921 1,037.3 True x
12/20/1988 14:55    1.91 98.00 3921 1,043.5 True x
12/28/1988 16:27    2.93 46.00 8699 1,094.3 True x
1/4/1989 11:50    2.78 72.00 7895 1,536.7 True x
1/11/1989 09:50    3.35 166.00 11140 5,013.1 True x
1/18/1989 11:40    2.52 82.00 6587 1,465.7 True x
1/25/1989 11:36    2.28 90.00 5432 1,330.5 True x
1/31/1989 10:16    2.50 95.00 6491 1,675.3 True x
2/10/1989 14:25    2.20 116.00 5127 1,608.5 True x
2/18/1989 13:38    2.02 95.00 4380 1,128.2 True x
2/25/1989 11:35    2.20 91.00 5127 1,264.5 True x
3/4/1989 12:25    2.00 96.00 4300 1,118.2 True x
3/11/1989 15:40    2.35 81.00 5790 1,269.4 True x
3/13/1989 10:20    2.36 73.00 5836 1,156.3 True x
3/13/1989 11:35    2.36 76.00 5836 1,201.8 True x
3/19/1989 14:00    2.35 73.00 5790 1,143.7 True x
3/24/1989 12:45    2.37 10 86.00 5882 1,376.3 True x
4/2/1989 13:30    2.32 73.00 5610 1,109.1 True x
4/5/1989 13:30    3.95 276.00 15100 11,268.8 True x
4/10/1989 11:10    3.15 64.00 9943 1,733.2 True x
4/18/1989 14:55    2.33 10 91.00 5700 1,406.6 True x
4/25/1989 10:30    1.95 12 87.00 4087 970.4 True x
5/3/1989 11:00    2.04 15 78.00 4460 947.9 True x
5/10/1989 14:20    1.72 16 101.00 3179 868.2 True x
5/17/1989 10:00    1.55 17 15.00 2581 107.5 True x
5/24/1989 11:25    2.24 20 66.00 5300 946.9 True x
6/1/1989 11:33    3.69 16 220.00 13310 7,925.9 True x
6/7/1989 11:15    3.92 21 130.00 14890 5,259.0 True x
6/14/1989 14:20    2.77 18 70.00 7843 1,501.8 True x
6/22/1989 09:52    2.02 25 148.00 4380 1,750.8 True x
6/29/1989 13:50    1.88 25 74.00 3799 760.6 True x
7/6/1989 10:03    1.42 25 27.00 2165 162.9 True x
7/13/1989 10:11    1.50 18 27.00 2417 181.0 True x
7/20/1989 10:07    2.44 20 81.00 6206 1,362.1 True x
7/27/1989 09:50    1.92 26 46.00 3962 492.6 True x
8/5/1989 10:51    1.33 26 55.00 1899 286.2 True x
8/11/1989 11:20    1.10 25 25.00 1298 88.4 True x
8/18/1989 11:40    1.09 24 29.00 1275 101.5 True x
8/25/1989 14:17    1.32 24 32.00 1871 166.3 True x
8/31/1989 10:31    1.12 23 32.00 1346 116.8 True x
9/9/1989 10:40    5.00 21 225.00 23320 14,197.1 True x
9/16/1989 17:00    3.55 17 65.00 12400 2,187.6 True x
9/27/1989 16:25    1.77 16 79.00 3367 724.1 True x
10/6/1989 15:25    1.50 14 44.00 2417 292.7 True x
10/16/1989 13:10    1.47 53.00 2321 334.6 True x
10/27/1989 15:40    1.72 15 58.00 3179 497.9 True x
11/4/1989 11:22    1.59 79.00 2716 585.7 True x
11/11/1989 10:57    1.58 67.00 2682 487.3 True x
11/18/1989 15:07    2.54 43.00 6684 784.7 True x
11/25/1989 15:17    2.10 46.00 4705 585.6 True x
12/3/1989 13:34    1.96 182.00 4129 2,038.5 True x
12/5/1989 10:00    1.80 78.00 3482 739.9 True x
12/5/1989 11:00    1.81 62.00 3521 594.7 True x
12/9/1989 15:07    1.72 72.00 3179 618.9 True x
1/17/1990 12:47    2.07 20.00 4541 250.5 True x
1/26/1990 15:10    3.19 59.00 10180 1,632.1 True x
2/7/1990 16:24    3.14 34.00 9885 929.1 True x
2/17/1990 15:00    2.86 55.00 8320 1,250.3 True x
2/24/1990 14:30    6.34 453.00 36150 44,218.0 True x
3/3/1990 10:05    4.30 45.00 17660 2,190.5 True x
3/11/1990 16:05    6.73 13 923.00 40360 100,656.3 True x
3/12/1990 11:30    6.50 15 555.00 37850 56,725.1 True x
3/12/1990 12:45    6.45 15 554.00 37310 55,888.6 True x
3/19/1990 16:00    4.50 10 86.00 19200 4,471.2 True x
4/7/1990 11:47    2.62 103.00 7077 1,982.5 True x
4/15/1990 11:41    3.20 10 107.00 10240 2,978.6 True x
4/18/1990 11:15    3.14 11 108.00 9885 2,888.3 True x
4/18/1990 12:05    3.14 11 109.00 9885 2,917.9 True x
5/6/1990 10:04    2.81 14 115.00 8053 2,504.8 True x
5/14/1990 11:00    4.40 15 310.00 18420 15,450.9 True x
5/23/1990 09:30    3.37 16 86.00 11260 2,622.2 True x
5/23/1990 10:03    3.35 22 144.00 11140 4,352.1 True x
5/23/1990 10:30    3.35 16 100.00 11140 3,027.6 True x
6/1/1990 13:43    2.60 22 138.00 6978 2,615.7 True x
6/8/1990 14:13    2.42 22 113.00 6113 1,867.1 True x
6/15/1990 15:19    2.31 27 119.00 5610 1,803.2 True x
6/22/1990 11:38    2.12 25 57.00 4788 744.5 True x
6/29/1990 11:19    2.07 24 49.00 4541 605.9 True x
7/2/1990 13:54    3.00 25 132.00 9087 3,240.8 True x
7/7/1990 13:29    1.79 27 39.00 3443 368.8 True x
7/12/1990 11:30    2.31 23 95.00 5610 1,452.2 True x
7/12/1990 12:40    2.30  93.00 5974 1,513.3 True x
7/14/1990 10:31    2.53 20 85.00 6587 1,524.4 True x
7/28/1990 10:54    3.36 25 88.00 11200 2,669.8 True x
8/4/1990 10:59    2.07 25 31.00 4541 386.8 True x
8/11/1990 15:17    1.80 28 16.00 3482 152.1 True x
8/18/1990 13:46    2.14 27 37.00 4872 488.8 True x
8/25/1990 10:36    3.42 24 64.00 11570 2,014.7 True x
9/1/1990 10:37    2.68 25 33.00 7379 659.6 True x
9/11/1990 14:13    1.79 27 19.00 3443 184.8 True x
9/17/1990 11:17    1.56 20 20.00 2614 145.1 True x
9/24/1990 13:06    1.50 18 17.00 2417 115.3 True x
10/1/1990 12:28    1.49 17 18.00 2384 116.7 True x
10/10/1990 13:35    4.37 12 156.00 18190 7,710.4 True x
10/17/1990 11:50    4.29 16 53.00 17580 2,536.4 True x
10/26/1990 14:40    3.05 12 18.00 9368 460.1 True x
11/5/1990 16:40    3.23 10 31.00 10410 879.3 True x
11/11/1990 16:40    3.70 20.00 13380 746.1 True x
1/2/1991 16:00    7.47 203.00 48920 26,926.4 True x
1/6/1991 12:33    5.22 43.00 25250 2,964.9 True x
1/12/1991 15:13    3.65 12.00 13050 450.3 True x
1/19/1991 15:59    4.40 50.00 18420 2,504.1 True x
2/4/1991 12:30    5.80 72.00 30670 5,965.1 True x
2/13/1991 10:33    3.37 18.00 11260 577.0 True x
2/19/1991 14:45    2.90 45.00 8536 1,044.0 True x
2/27/1991 14:46    2.99 32.00 9031 793.5 True x
3/3/1991 14:15    4.24 425.00 17200 19,756.4 True x
3/16/1991 13:00    3.97 224.00 15240 9,228.7 True x
3/24/1991 17:05    4.58 10 74.00 19840 4,014.2 True x
4/2/1991 16:02    3.30 12 27.00 10830 798.7 True x
4/10/1991 09:53    2.72 13 57.00 7584 1,186.9 True x
4/16/1991 13:08    4.92 15 332.00 22640 20,300.6 True x
4/26/1991 11:58    3.25 17 26.00 10530 750.0 True x
5/10/1991 09:58    2.92 18 64.00 8645 1,511.3 True x
5/16/1991 10:38    2.76 22 73.00 7791 1,545.8 True x
5/26/1991 14:22    4.82 24 349.00 21800 20,566.7 True x
6/4/1991 14:06    3.13 25 92.00 9827 2,459.6 True x
6/12/1991 10:32    2.30 26 37.00 5565 560.2 True x
6/22/1991 10:19    1.68 26 22.00 3032 187.3 True x
6/28/1991 11:34    1.32 28 19.00 1871 100.2 True x
7/8/1991 14:14    1.22 30 28.00 1598 124.6 True x
7/25/1991 12:26    0.79 27 27.00 668 49.2 True x
8/2/1991 13:15    0.65 31 23.00 457 28.9 True x
8/14/1991 11:21    0.78 28 20.00 652 36.8 True x
8/20/1991 12:45    0.80 25 20.00 686 38.3 True x
8/27/1991 11:38    0.87 29 17.00 811 38.8 True x
9/2/1991 11:12    0.77 26 15.00 635 27.4 True x
9/12/1991 11:06    0.87 28 13.00 811 29.1 True x
9/21/1991 12:20    0.90 16 9.00 868 21.6 True x
9/28/1991 12:49    0.97 16 6.00 1009 18.9 True x
10/5/1991 13:23    1.55 17 16.00 2581 112.2 True x
10/12/1991 12:15    1.28 13 10.00 1759 47.7 True x
10/20/1991 15:24    1.18 17 10.00 1494 43.8 True x
10/26/1991 12:38    1.37 17 16.00 2015 90.9 True x
11/1/1991 15:12    2.87 12 64.00 8373 1,457.0 True x
11/11/1991 11:51    1.91 15 8.00 3921 89.1 True x
11/17/1991 14:53    2.14 13.00 4872 176.4 True x
11/25/1991 12:15    2.88 14.00 8427 324.8 True x
12/5/1991 12:44    3.08 24.00 9539 639.6 True x
12/12/1991 11:12    3.63 153.00 12920 5,362.4 True x
12/18/1991 10:13    3.17 70.00 10060 1,921.5 True x
12/26/1991 11:36    2.33 13.00 5700 208.0 True x
1/12/1992 14:28    2.14 20.00 4872 264.5 True x
2/3/1992 16:30    2.15 88.00 4914 1,168.5 True x
2/9/1992 14:40    2.20 67.00 5127 933.5 True x
2/19/1992 16:00    3.80 171.00 14060 6,514.9 True x
2/23/1992 12:20    3.27 49.00 10650 1,427.6 True x
3/1/1992 17:40    2.53 83.00 6635 1,491.1 True x
3/12/1992 11:25    2.70 49.00 7481 1,001.4 True x
3/19/1992 11:10    2.68 69.00 7379 1,394.5 True x
3/30/1992 10:07    2.56 77.00 6781 1,412.2 True x
4/12/1992 10:02    2.24 12 87.00 5300 1,247.3 True x
4/22/1992 11:55    2.55 12 49.00 6732 894.7 True x
5/8/1992 13:10    1.81 20 31.00 3521 302.1 True x
5/12/1992 19:40    1.68 22 86.00 3032 709.2 True x
5/17/1992 14:35    1.57 23 71.00 2648 510.7 True x
5/26/1992 12:20    1.42 16 83.00 2165 488.1 True x
6/1/1992 13:32    1.37 21 83.00 2015 455.4 True x
6/9/1992 12:40    2.22 24 29.00 5213 408.2 True x
6/17/1992 10:41    1.67 24 33.00 2996 273.4 True x
6/28/1992 10:36    1.17 25 54.00 1469 215.5 True x
7/8/1992 09:13    1.25 25 19.00 1677 89.9 True x
7/14/1992 14:50    1.95 26 31.00 4087 345.2 True x
7/23/1992 15:48    3.02 23 118.00 9199 2,941.9 True x
7/30/1992 13:52    2.80 22 68.00 8000 1,469.6 True x
8/12/1992 10:50    1.20 23 47.00 1545 199.3 True x
8/19/1992 15:17    1.10 25 54.00 1298 191.4 True x
8/26/1992 11:38    1.03 27 9.00 1138 29.0 True x
9/3/1992 10:39    0.99 23 9.00 1051 26.8 True x
9/11/1992 12:05    2.48 20 54.00 6395 948.5 True x
9/17/1992 14:30    2.12 23 40.00 4788 528.3 True x
9/24/1992 15:04    1.71 20 29.00 3142 247.3 True x
10/2/1992 11:47    2.09 18 33.00 4664 421.0 True x
10/8/1992 12:42    1.62 17 19.00 2819 148.7 True x
10/20/1992 13:12    1.65 11 19.00 2925 154.5 True x
11/1/1992 10:58    1.72 13.00 3179 113.5 True x
11/4/1992 15:27    3.78 145.00 13920 5,457.6 True x
11/11/1992 11:00    3.60 29.00 12720 1,006.5 True x
11/14/1992 14:39    4.80 93.00 21630 5,468.3 True x
11/21/1992 10:27    3.56 24.00 12460 829.2 True x
12/1/1992 14:29    3.12 13.00 9769 360.3 True x
12/9/1992 14:18    2.30 37.00 5565 569.6 True x
12/20/1992 15:30    2.86 8.00 8320 196.9 True x
12/31/1992 15:05    4.99 200.00 23240 12,570.7 True x
1/6/1993 07:40    6.80 251.00 41130 27,876.7 True x
1/12/1993 07:10    4.60 37.00 20000 2,028.0 True x
1/16/1993 13:10    4.05 17.00 15810 729.6 True x
1/24/1993 14:00    5.33 72.00 26240 5,112.2 True x
1/31/1993 14:32    3.57 10.00 12530 370.1 True x
2/8/1993 10:45    2.76 27.00 7791 571.2 True x
2/15/1993 11:47    2.66 10.00 7278 198.4 True x
2/20/1993 15:16    2.69 31.00 7430 631.4 True x
3/2/1993 12:22    2.45 12.00 6253 218.1 True x
3/6/1993 10:10    5.25 117.00 25520 8,084.5 True x
3/9/1993 12:30    4.95 49.00 22890 3,040.0 True x
3/17/1993 13:41    3.55 66.00 12400 2,218.1 True x
3/23/1993 11:36    5.27 250.00 25700 17,394.0 True x
3/30/1993 14:34    3.81 10 29.00 14120 1,110.9 True x
4/6/1993 10:20    4.50 34.00 19200 1,797.3 True x
4/12/1993 15:10    3.43 70.00 11630 2,204.7 True x
4/19/1993 10:00    4.45 91.00 18810 4,636.9 True x
5/4/1993 10:41    3.29 14 58.00 10770 1,709.8 True x
5/11/1993 10:52    2.87 19 51.00 8373 1,155.0 True x
5/11/1993 14:35    2.89 24 60.00 8481 1,384.9 True x
5/11/1993 15:40    2.87 23 71.00 8373 1,610.8 True x
5/21/1993 10:15    2.15 14 86.00 4914 1,145.0 True x
5/27/1993 10:48    2.22 16 92.00 5213 1,301.1 True x
6/4/1993 11:32    3.00 14 77.00 9087 1,896.1 True x
6/10/1993 15:09    5.67 18 304.00 29410 24,155.6 True x
6/18/1993 10:15    3.86 21 75.00 14470 2,930.2 True x
6/29/1993 10:24    4.98 22 500.00 23150 31,273.8 True x
7/6/1993 15:39    5.36 25 71.00 26520 5,088.9 True x
7/9/1993 13:50    4.05 27 48.00 15810 2,067.8 True x
7/17/1993 10:02    3.23 23 98.00 10410 2,771.1 True x
7/23/1993 12:26    2.51 23 88.00 6539 1,561.3 True x
8/1/1993 13:55    2.00 27 35.00 4300 414.0 True x
8/7/1993 14:23    1.53 24 75.00 2514 509.3 True x
8/18/1993 10:30    1.85 26 30.00 3678 300.2 True x
8/24/1993 14:20    2.30 26 71.00 5565 1,071.2 True x
8/31/1993 11:26    2.93 23 123.00 8699 2,891.1 True x
9/7/1993 13:33    5.03 20 124.00 23580 7,915.0 True x
9/10/1993 12:25    4.66 19 76.00 20480 4,244.0 True x
9/16/1993 12:10    4.90 17 94.00 22470 5,745.4 True x
9/26/1993 15:58    3.95 17 63.00 15100 2,605.6 True x
10/3/1993 13:30    3.12 15 33.00 9733 890.6 True x
10/12/1993 12:12    3.14 13 50.00 9843 1,342.1 True x
10/17/1993 16:13    6.00 15 227.00 28200 17,335.6 True x
2/20/1994 14:40    5.08 154.00 21830 9,104.6 True x
3/4/1994 17:10    2.41 9.00 6066 148.4 True x
3/19/1994 14:30    2.65 37.00 7227 733.9 True x
3/27/1994 13:25    2.33 71.00 5700 1,106.1 True x
4/4/1994 11:08    2.24 11 62.00 5300 898.5 True x
4/10/1994 14:55    2.25 11 54.00 5344 788.7 True x
4/16/1994 10:15    6.33 11 349.00 30550 28,862.3 True x
5/4/1994 15:47    3.03 16 72.00 9247 1,805.4 True x
5/13/1994 10:40    2.43 16 113.00 6159 1,883.1 True x
5/21/1994 12:15    2.00 21 90.00 4300 1,048.2 True x
5/31/1994 13:57    1.60 24 103.00 2750 768.9 True x
6/6/1994 15:17    1.40 26 108.00 2105 616.5 True x
6/13/1994 09:58    1.54 24 115.00 2547 795.1 True x
6/21/1994 09:50    2.77 27 75.00 7843 1,607.3 True x
6/28/1994 15:23    2.01 27 56.00 4340 656.3 True x
7/5/1994 13:52    2.18 29 41.00 5041 569.7 True x
7/13/1994 14:52    2.59 27 53.00 6928 999.1 True x
7/23/1994 11:33    2.04 27 34.00 4460 417.8 True x
8/1/1994 11:40    1.41 25 70.00 2135 407.7 True x
8/8/1994 15:15    1.29 26 75.00 1786 365.2 True x
8/17/1994 15:40    1.35 26 45.00 1957 240.1 True x
8/24/1994 09:20    1.27 24 49.00 1731 231.6 True x
8/30/1994 11:30    1.13 22 65.00 1370 242.2 True x
9/4/1994 12:07    1.14 20 90.00 1395 340.4 True x
9/10/1994 10:10    1.06 24 74.00 1205 241.6 True x
9/18/1994 13:55    0.98 24 50.00 1030 141.0 True x
9/27/1994 10:22    1.04 17 60.00 1160 189.8 True x
10/5/1994 09:35    0.95 16 59.00 967 155.1 True x
10/17/1994 10:34    1.03 17 59.00 1138 183.6 True x
10/26/1994 10:17    1.01 11 68.00 1094 201.7 True x
11/1/1994 15:00    1.31 10 82.00 1842 411.1 True x
11/7/1994 09:27    2.31 12 27.00 5610 421.7 True x
11/14/1994 14:31    2.45 12 29.00 6253 506.0 True x
11/26/1994 14:54    1.88 73.00 3799 753.7 True x
12/4/1994 14:01    2.05 132.00 4500 1,609.6 True x
12/14/1994 10:22    2.97 116.00 8920 2,801.4 True x
12/19/1994 10:51    2.81 114.00 8053 2,495.7 True x
12/25/1994 14:20    2.35 114.00 5790 1,793.1 True x
1/2/1995 14:15    2.00 111.00 4300 1,292.7 True x
1/8/1995 14:12    2.95 127.00 8809 3,041.5 True x
1/15/1995 14:30    4.92 286.00 20760 16,077.1 True x
1/22/1995 14:01    4.00 53.00 14800 2,142.9 True x
2/4/1995 14:30    2.40 113.00 6020 1,838.2 True x
2/12/1995 14:00    3.15 144.00 9898 3,857.1 True x
2/19/1995 12:25    2.23 108.00 5256 1,541.1 True x
2/25/1995 13:05    1.77 88.00 3367 801.4 True x
3/3/1995 16:00    2.06 75.00 4541 930.8 True x
3/10/1995 17:20    3.94 134.00 14440 5,230.6 True x
3/21/1995 17:10    2.67 11 93.00 7328 1,850.0 True x
3/26/1995 14:11    2.29 10 97.00 5520 1,454.3 True x
4/1/1995 15:40    2.31 104.00 5610 1,589.0 True x
4/8/1995 16:20    2.09 12 97.00 4664 1,231.7 True x
4/16/1995 11:00    4.60 11 75.00 18640 3,798.7 True x
4/22/1995 10:45    3.82 12 59.00 13730 2,218.8 True x
4/28/1995 11:57    3.30 13 109.00 10740 3,174.9 True x
5/8/1995 15:25    2.42 17 101.00 6112 1,677.5 True x
5/22/1995 10:45    4.14 17 91.00 15610 3,854.4 True x
5/31/1995 09:40    4.88 19 71.00 20490 3,965.9 True x
6/18/1995 15:16    2.03 27 99.00 4420 1,185.6 True x
6/24/1995 09:40    1.68 27 100.00 3032 824.3 True x
6/30/1995 09:58    3.49 22 241.00 11840 7,717.0 True x
7/8/1995 15:30    2.05 26 93.00 4500 1,133.5 True x
7/15/1995 14:10    1.45 33 89.00 2258 548.4 True x
7/22/1995 11:58    1.35 32 75.00 1957 399.2 True x
7/29/1995 14:25    1.38 31 17.00 2045 95.1 True x
8/5/1995 09:22    3.50 25 195.00 11900 6,272.2 True x
8/13/1995 13:38    1.90 31 40.00 3880 422.7 True x
8/27/1995 12:46    1.34 29 19.00 1928 100.3 True x
9/8/1995 11:49    1.09 21 27.00 1275 94.1 True x
9/17/1995 15:21    1.04 22 66.00 1160 207.0 True x
10/8/1995 15:16    0.95 18 64.00 967 168.2 True x
10/19/1995 17:52    0.88 17 45.00 830 103.1 True x
10/29/1995 14:30    1.12 11 98.00 1346 356.4 True x
11/18/1995 15:10    2.51 15.00 6538 266.0 True x
11/26/1995 13:54    1.95 60.00 4087 665.4 True x
12/3/1995 14:20    1.67 81.00 2996 659.1 True x
2/25/1996 16:45    1.33 50.00 1899 259.6 True x
3/5/1996 14:54    1.99 15.00 4257 181.0 True x
4/19/1996 10:07    1.48 14 78.00 2352 497.9 True x
4/30/1996 12:20    2.81 11 60.00 8053 1,319.4 True x
5/5/1996 16:56    2.56 14 54.00 6781 1,002.2 True x
5/12/1996 13:14    4.15 13 251.00 15730 10,665.9 True x
5/20/1996 16:00    3.36 22 116.00 11080 3,481.8 True x
5/27/1996 14:20    3.95 15 111.00 14500 4,375.1 True x
5/30/1996 10:45    6.02 16 314.00 28340 24,097.0 True x
6/5/1996 10:58    4.44 19 111.00 17600 5,315.8 True x
6/13/1996 14:28    3.82 23 101.00 13730 3,749.7 True x
6/23/1996 15:15    4.45 25 122.00 17670 5,864.1 True x
7/2/1996 16:11    2.51 28 74.00 6538 1,310.6 True x
7/6/1996 11:36    2.11 26 45.00 4746 578.5 True x
7/13/1996 09:26    1.51 24 80.00 2449 533.2 True x
7/19/1996 10:08    5.93 25 363.00 27700 27,221.5 True x
7/23/1996 10:17    5.62 21 182.00 25500 12,585.5 True x
7/30/1996 11:41    4.40 23 62.00 17340 2,945.6 True x
8/7/1996 15:35    3.04 28 41.00 9300 1,033.5 True x
8/13/1996 11:05    2.53 24 30.00 6635 553.3 True x
8/20/1996 10:00    2.05 25 16.00 4500 198.0 True x
8/26/1996 09:38    1.66 25 10.00 2961 86.6 True x
9/1/1996 15:43    1.43 27 33.00 2196 196.7 True x
9/12/1996 13:45    1.32 22 14.00 1871 72.9 True x
9/19/1996 12:03    1.32 18 16.00 1871 81.1 True x
9/27/1996 13:40    1.49 16 12.00 2384 79.9 True x
10/14/1996 13:48    1.22 17 5.00 1598 25.2 True x
10/20/1996 10:15    1.39 11 6.00 2075 34.2 True x
10/28/1996 15:37    1.58 15 7.00 2682 57.0 True x
11/22/1996 16:01    1.85 5.00 3678 55.5 True x
12/7/1996 14:06    2.53 10.00 6635 193.5 True x
12/14/1996 14:34    3.20 118.00 10170 3,247.2 True x
12/23/1996 15:40    4.84 8.00 20220 452.6 True x
12/29/1996 13:32    2.89 49.00 8481 1,138.8 True x
1/3/1997 11:58    2.69 17.00 7430 348.4 True x
2/22/1997 14:10    7.22 544.00 37150 54,650.1 True x
2/26/1997 15:24    7.30 385.00 37760 39,262.8 True x
3/9/1997 14:06    4.30 31.00 16690 1,427.9 True x
3/19/1997 15:39    4.05 75.00 15110 3,076.0 True x
3/24/1997 14:45    3.98 70.00 14680 2,791.3 True x
3/28/1997 10:22    2.93 11 72.00 8699 1,713.2 True x
4/3/1997 09:41    2.95 12 61.00 8809 1,464.7 True x
4/13/1997 16:13    3.12 35.00 9733 940.4 True x
4/21/1997 09:49    2.49 12 78.00 6443 1,366.0 True x
4/29/1997 10:04    2.20 14 82.00 5127 1,136.4 True x
5/6/1997 09:40    3.10 13 115.00 9624 3,002.2 True x
5/12/1997 15:50    2.20 16 94.00 5127 1,314.1 True x
5/21/1997 13:10    2.58 17 187.00 6879 3,485.5 True x
5/28/1997 14:15    3.67 16 195.00 12860 6,772.4 True x
6/4/1997 14:56    3.46 19 87.00 11660 2,743.9 True x
6/11/1997 15:20    5.36 20 78.00 23710 5,038.8 True x
6/20/1997 11:59    4.26 24 85.00 16430 3,777.0 True x
6/25/1997 13:50    3.20 27 58.00 10170 1,608.8 True x
6/30/1997 11:30    2.70 26 81.00 7481 1,655.5 True x
7/7/1997 12:01    2.24 24 57.00 5300 827.8 True x
7/14/1997 11:39    2.11 29 51.00 4746 663.7 True x
7/22/1997 14:21    2.01 26 34.00 4340 407.2 True x
7/28/1997 10:10    2.46 28 42.00 6300 725.7 True x
8/4/1997 14:50    1.65 28 35.00 2925 280.7 True x
8/11/1997 16:21    1.52 23 14.00 2482 98.2 True x
8/18/1997 10:51    3.67 22 150.00 12860 5,235.1 True x
8/31/1997 15:50    1.79 26 36.00 3443 342.8 True x
9/6/1997 17:05    1.46 25 41.00 2289 258.1 True x
9/13/1997 13:52    1.42 22 47.00 2165 275.1 True x
9/20/1997 16:42    1.45 23 25.00 2258 154.9 True x
10/1/1997 10:15    1.21 16 37.00 1571 158.1 True x
10/4/1997 14:43    1.25 21 23.00 1677 106.8 True x
10/11/1997 11:40    1.18 19 32.00 1494 129.7 True x
10/19/1997 16:10    1.09 15 41.00 1275 144.3 True x
10/29/1997 09:50    1.37 108.00 2015 591.5 True x
11/5/1997 10:42    1.41 88.00 2135 512.4 True x
11/17/1997 15:54    1.30 98.00 1814 480.4 True x
11/26/1997 11:20    1.45 97.00 2258 593.1 True x
12/2/1997 11:45    1.98 17.00 4214 194.3 True x
12/6/1997 15:45    1.84 59.00 3639 581.1 True x
12/11/1997 12:25    1.73 38.00 3216 335.1 True x
12/16/1997 15:06    1.64 82.00 2890 642.4 True x
12/22/1997 13:59    1.70 80.00 3105 677.3 True x
12/30/1997 15:05    2.37 70.00 5881 1,122.6 True x
1/4/1998 12:45    2.59 53.00 6928 1,007.4 True x
1/9/1998 13:41    5.69 198.00 25990 13,895.0 True x
1/16/1998 13:37    3.82 20.00 13730 762.5 True x
1/24/1998 12:58    2.66 67.00 7278 1,333.1 True x
2/2/1998 15:40    3.12 58.00 9733 1,537.1 True x
2/10/1998 10:29    2.51 74.00 6538 1,321.1 True x
2/16/1998 14:03    2.02 45.00 4380 532.3 True x
2/23/1998 15:45    3.04 26.00 9300 665.6 True x
3/1/1998 12:20    2.65 64.00 7227 1,259.5 True x
3/8/1998 13:10    2.35 81.00 5790 1,276.2 True x
3/14/1998 14:45    4.31 47.00 16760 2,144.3 True x
3/22/1998 14:18    6.78 117.00 33850 10,748.5 True x
3/30/1998 14:58    4.75 18 85.00 19620 4,521.7 True x
4/6/1998 09:38    3.85 11 39.00 13910 1,469.4 True x
4/12/1998 12:48    4.02 15 80.00 14920 3,247.5 True x
4/23/1998 09:14    3.85 13 39.00 13910 1,492.8 True x
4/29/1998 15:40    3.13 15 56.00 9788 1,487.5 True x
5/4/1998 15:00    3.97 18 79.00 14620 3,128.8 True x
5/8/1998 13:35    8.21 17 253.00 44900 30,791.7 True x
5/14/1998 09:30    4.95 20 56.00 20960 3,221.9 True x
5/26/1998 13:38    2.72 22 108.00 7583 2,216.4 True x
6/2/1998 14:33    2.04 25 79.00 4460 952.7 True x
6/11/1998 13:30    3.01 20 64.00 9140 1,601.5 True x
6/18/1998 11:10    4.27 23 92.00 16500 4,123.1 True x
6/24/1998 13:57    3.05 28 62.00 9354 1,586.4 True x
6/29/1998 15:10    2.05 30 33.00 4500 402.2 True x
7/6/1998 15:16    3.33 26 142.00 10910 4,186.4 True x
7/13/1998 11:40    3.64 26 71.00 12690 2,458.7 True x
7/30/1998 14:10    1.56 29 83.00 2614 587.9 True x
7/30/1998 18:08    1.67 30 16.00 2996 133.8 True x
8/5/1998 13:00    3.42 25 128.00 11430 3,958.4 True x
8/13/1998 11:43    2.21 21 109.00 5170 1,535.4 True x
8/20/1998 13:27    1.36 27 119.00 1986 640.1 True x
8/28/1998 14:20    1.15 26 98.00 1419 375.6 True x
9/4/1998 16:05    1.11 26 112.00 1322 400.6 True x
9/14/1998 11:57    1.12 25 98.00 1346 358.0 True x
9/23/1998 11:14    0.95 21 99.00 967 259.9 True x
9/28/1998 11:01    0.90 24 13.00 868 31.9 True x
10/6/1998 10:45    1.09 20 100.00 1275 345.7 True x
10/12/1998 13:37    1.10 18 113.00 1298 399.1 True x
10/19/1998 13:29    1.08 17 113.00 1251 383.3 True x
11/3/1998 11:50    1.06 11 110.00 1205 360.8 True x
11/12/1998 11:20    1.16 67.00 1444 261.9 True x
11/18/1998 14:40    1.15 10 26.00 1419 102.1 True x
11/24/1998 11:25    1.03 106.00 1138 326.5 True x
12/2/1998 15:41    1.09 11 130.00 1275 448.4 True x
12/9/1998 15:40    1.42 106.00 2165 624.6 True x
12/16/1998 14:01    1.28 27.00 1759 128.8 True x
12/23/1998 12:08    1.44 14.00 2227 87.8 True x
1/28/1999 15:03    5.77 242.00 26550 17,392.4 True x
2/2/1999 15:25    3.93 25.00 14380 1,003.7 True x
2/11/1999 14:05    3.67 10 83.00 12860 2,886.8 True x
2/18/1999 11:26    2.70 14.00 7481 286.0 True x
2/24/1999 11:23    2.22 19.00 5213 275.5 True x
3/5/1999 12:00    2.27 36.00 5432 535.6 True x
3/13/1999 16:07    2.80 10.00 8000 219.6 True x
3/20/1999 15:42    3.13 10 25.00 9788 672.9 True x
3/26/1999 10:40    2.48 10.00 6395 176.8 True x
3/31/1999 11:05    2.18 13 26.00 5041 358.1 True x
4/7/1999 10:17    2.08 14 19.00 4623 243.0 True x
4/17/1999 13:45    5.60 235.00 25360 16,121.5 True x
4/22/1999 15:05    4.87 14 88.00 20420 4,891.5 True x
4/30/1999 15:00    4.36 15 52.00 17080 2,400.1 True x
5/11/1999 10:47    2.82 19 29.00 8106 643.7 True x
5/20/1999 11:50    2.50 21 51.00 6490 905.6 True x
5/26/1999 14:48    2.27 19 97.00 5432 1,434.8 True x
6/3/1999 14:15    3.05 21 225.00 9354 5,697.3 True x
6/11/1999 10:33    2.63 26 124.00 7127 2,388.2 True x
6/17/1999 10:28    3.00 19 76.00 9087 1,878.2 True x
6/23/1999 14:42    2.17 25 61.00 4999 829.0 True x
6/30/1999 12:00    1.99 26 33.00 4257 390.6 True x
7/7/1999 10:15    2.20 27 38.00 5127 534.6 True x
7/16/1999 12:12    1.20 28 78.00 1545 326.6 True x
7/22/1999 12:10    1.24 31 31.00 1650 138.3 True x
7/29/1999 15:39    1.06 33 35.00 1205 114.9 True x
8/4/1999 14:19    1.00 29 15.00 1073 45.6 True x
8/12/1999 11:54    0.86 26 19.00 792 42.6 True x
8/20/1999 14:05    0.88 25 14.00 830 33.4 True x
8/26/1999 15:42    0.91 25 16.00 888 40.2 True x
9/3/1999 12:13    0.78 28 12.00 652 21.9 True x
9/9/1999 14:44    0.62 24 9.00 419 10.7 True x
9/15/1999 14:48    0.57 22 9.00 357 9.1 True x
9/22/1999 11:38    0.86 18 10.00 792 23.2 True x
9/29/1999 12:10    0.81 19 16.00 703 31.0 True x
10/8/1999 14:26    0.83 15 8.00 738 17.9 True x
10/15/1999 11:30    0.83 16 9.00 738 19.3 True x
10/21/1999 16:06    0.79 14 71.00 668 129.3 True x
10/30/1999 14:47    0.80 17 50.00 686 92.7 True x
11/8/1999 10:35    0.73 12 51.00 571 80.2 True x
11/12/1999 12:00    0.74 13 49.00 586 78.1 True x
11/17/1999 16:00    0.85 68.00 774 143.6 True x
11/27/1999 11:35    0.92 82.00 907 201.0 True x
12/3/1999 10:21    0.88 69.00 830 156.8 True x
12/8/1999 13:50    1.27 79.00 1731 369.5 True x
12/18/1999 15:11    1.42 56.00 2165 331.8 True x
12/31/1999 14:48    1.40 95.00 2105 545.4 True x
1/10/2000 12:05    1.23 68.00 1624 300.3 True x
1/15/2000 15:05    1.33 61.00 1899 317.0 True x
2/23/2000 11:53    1.65 25.00 2925 202.6 True x
2/29/2000 12:15    2.09 11 16.00 4664 209.3 True x
4/2/2000 13:05    1.49 12 20.00 2384 133.2 True x
4/12/2000 14:15    1.69 10 72.00 3069 601.6 True x
4/18/2000 12:15    1.71 13 84.00 3142 715.1 True x
4/25/2000 14:30    3.06 14 101.00 9408 2,574.8 True x
5/5/2000 10:28    2.20 20 112.00 5127 1,562.3 True x
5/12/2000 15:20    2.35 23 135.00 5790 2,116.2 True x
5/19/2000 11:21    2.00 15 42.00 4300 490.8 True x
5/25/2000 11:45    1.93 20 39.00 4004 427.4 True x
6/1/2000 17:45    3.21 22 111.00 10230 3,070.7 True x
6/10/2000 11:45    2.10 25 37.00 4705 479.3 True x
6/16/2000 11:30    3.12 21 143.00 9733 3,759.3 True x
6/21/2000 16:12    4.78 23 311.00 19820 16,646.3 True x
6/26/2000 09:40    4.37 22 141.00 17140 6,532.6 True x
7/4/2000 13:45    3.33 24 73.00 10910 2,167.0 True x
7/13/2000 11:45    4.20 23 115.00 16050 4,994.1 True x
7/17/2000 17:18    2.40 27 70.00 6020 1,139.8 True x
7/26/2000 10:50    1.45 24 97.00 2258 593.7 True x
8/4/2000 14:10    1.40 25 116.00 2105 662.6 True x
8/11/2000 14:04    1.48 27 48.00 2352 309.9 True x
8/15/2000 14:32    1.16 29 43.00 1444 170.6 True x
8/21/2000 15:05    1.00 25 39.00 1073 114.5 True x
8/29/2000 10:10    0.85 26 29.00 774 62.0 True x
9/5/2000 13:50    0.65 23 87.00 457 108.6 True x
9/10/2000 15:40    0.70 27 29.00 525 42.1 True x
9/18/2000 14:59    1.08 23 59.00 1251 200.8 True x
9/27/2000 11:43    0.98 17 54.00 1030 152.6 True x
10/3/2000 15:55    0.93 20 127.00 927 319.0 True x
10/27/2000 11:45    1.07 20 84.00 1228 279.7 True x
10/31/2000 11:59    0.95 16 43.00 967 113.8 True x
11/10/2000 11:41    1.92 40.00 3962 435.0 True x
11/15/2000 15:45    1.72 140.00 3179 1,205.7 True x
11/25/2000 10:25    1.29 140.00 1786 678.5 True x
12/4/2000 14:55    1.44 135.00 2227 817.5 True x
12/10/2000 10:45    1.54 103.00 2547 712.7 True x
2/10/2001 15:57    6.25 244.00 29970 19,748.9 True x
2/19/2001 16:12    3.85 28.00 13910 1,062.8 True x
2/26/2001 15:27    5.78 293.00 26630 21,091.5 True x
3/4/2001 16:30    3.97 41.00 14620 1,657.6 True x
3/18/2001 14:07    3.06 20.00 9408 525.8 True x
3/30/2001 14:39    2.18 10 13.00 5041 179.0 True x
4/9/2001 11:40    2.35 18 59.00 5790 931.5 True x
4/15/2001 17:10    3.27 15 90.00 10570 2,593.6 True x
4/24/2001 15:50    2.55 17 91.00 6732 1,654.3 True x
5/2/2001 15:40    1.95 23 83.00 4087 921.9 True x
5/10/2001 13:07    1.67 22 39.00 2996 321.6 True x
5/16/2001 13:50    1.61 26 75.00 2785 566.3 True x
5/24/2001 12:12    1.78 18 85.00 3405 785.4 True x
5/30/2001 11:05    2.63 12 118.00 7127 2,282.8 True x
6/6/2001 14:52    5.17 17 411.00 22430 24,898.9 True x
6/15/2001 14:10    2.88 25 62.00 8427 1,420.0 True x
6/23/2001 13:10    2.01 24 26.00 4340 311.8 True x
6/29/2001 11:43    1.61 28 83.00 2785 630.6 True x
7/10/2001 11:49    1.91 29 21.00 3921 228.3 True x
7/17/2001 14:50    1.27 29 34.00 1731 160.7 True x
7/29/2001 14:10    1.64 30 21.00 2890 163.8 True x
8/5/2001 12:00    1.14 30 18.00 1395 69.7 True x
8/12/2001 14:55    0.77 30 24.00 635 42.0 True x
8/19/2001 15:40    1.00 23 32.00 1073 94.6 True x
8/26/2001 13:50    1.33 26 30.00 1899 153.8 True x
9/3/2001 15:30    1.69 26 35.00 3069 293.0 True x
9/9/2001 10:55    1.00 24 27.00 1073 80.0 True x
9/16/2001 14:25    0.99 20 24.00 1051 69.8 True x
9/24/2001 11:33    1.12 19 23.00 1346 86.1 True x
9/30/2001 12:20    1.02 17 18.00 1116 54.9 True x
10/7/2001 14:25    1.27 14 15.00 1731 73.4 True x
10/14/2001 14:40    3.00 17 94.00 9087 2,308.0 True x
10/21/2001 10:40    4.07 11 68.00 15230 2,821.2 True x
10/28/2001 14:40    4.85 10 77.00 20290 4,220.3 True x
11/5/2001 10:15    3.23 12 32.00 10340 904.8 True x
11/11/2001 15:05    2.48 10 60.00 6395 1,050.5 True x
11/19/2001 11:45    2.02 12 15.00 4380 180.7 True x
11/25/2001 10:50    1.92 10 13.00 3962 146.4 True x
12/2/2001 11:05    2.99 41.00 9031 1,008.9 True x
12/9/2001 10:40    2.39 13.00 5973 216.5 True x
12/23/2001 15:05    2.94 22.00 8754 541.5 True x
1/27/2002 15:45    1.59 7.00 2716 56.7 True x
2/3/2002 11:00    5.10 139.00 21960 8,288.5 True x
2/17/2002 15:15    2.49 7.00 6443 138.5 True x
2/23/2002 13:20    4.10 175.00 15420 7,326.1 True x
3/9/2002 11:45    5.56 166.00 25080 11,293.5 True x
3/30/2002 13:55    3.15 15.00 9898 421.4 True x
4/6/2002 13:40    3.67 21.00 12860 744.2 True x
4/13/2002 18:30    3.74 15 28.00 13260 1,018.5 True x
4/21/2002 14:30    2.80 15 81.00 8000 1,765.2 True x
4/28/2002 16:40    4.07 11 67.00 15230 2,778.6 True x
5/4/2002 17:00    3.76 17 100.00 13380 3,634.1 True x
5/13/2002 10:40    8.15 13 384.00 44410 46,137.7 True x
5/19/2002 19:30    5.18 13 47.00 22490 2,881.1 True x
5/26/2002 16:15    3.38 19 33.00 11200 1,004.7 True x
6/2/2002 16:45    2.56 23 30.00 6781 549.4 True x
6/9/2002 15:50    2.45 25 20.00 6253 347.3 True x
6/15/2002 14:30    2.52 23 35.00 6587 632.4 True x
6/23/2002 12:15    1.79 29 17.00 3443 164.3 True x
6/30/2002 14:10    1.98 30 19.00 4214 218.8 True x
7/7/2002 12:40    1.33 29 12.00 1899 65.8 True x
7/12/2002 15:15    1.40 28 37.00 2105 211.1 True x
7/21/2002 10:10    0.95 31 21.00 967 55.6 True x
7/28/2002 11:45    1.16 28 34.00 1444 133.8 True x
8/4/2002 12:15    1.39 30 30.00 2075 172.7 True x
8/11/2002 12:20    0.93 28 27.00 927 68.7 True x
8/18/2002 15:35    0.79 27 24.00 668 43.9 True x
8/25/2002 11:30    2.02 26 91.00 4380 1,084.3 True x
9/2/2002 14:05    0.90 27 25.00 868 60.3 True x
9/8/2002 12:35    0.66 29 12.00 471 15.6 True x
9/15/2002 12:00    0.70 25 10.00 525 14.5 True x
9/22/2002 11:15    0.93 21 13.00 927 33.2 True x
9/29/2002 11:30    0.94 22 9.00 947 25.0 True x
10/6/2002 13:30    0.88 19 12.00 830 27.7 True x
10/13/2002 09:45    0.86 15 10.00 792 22.3 True x
10/26/2002 10:25    0.82 10 6.00 720 12.9 True x
11/2/2002 12:40    0.86 9.00 792 21.2 True x
11/10/2002 10:20    1.03 12 13.00 1138 40.1 True x
11/17/2002 08:45    1.00 5.00 1073 15.4 True x
11/24/2002 09:25    0.98 5.00 1030 16.2 True x
12/1/2002 13:00    0.88 8.00 830 18.7 True x
12/8/2002 10:00    1.29 4.00 1786 20.8 True x
12/14/2002 15:30    0.95 6.00 967 16.5 True x
12/21/2002 14:25    1.29 6.00 1786 31.9 True x
12/28/2002 13:25    1.26 7.00 1704 34.3 True x
1/5/2003 10:55    1.25 3.00 1677 17.1 True x
1/11/2003 13:05    1.75 12.00 3291 113.3 True x
3/1/2003 16:40    1.42 6.00 2165 40.4 True x
3/9/2003 13:30    1.47 7.00 2321 47.6 True x
3/15/2003 16:15    1.63 17.00 2854 137.9 True x
3/22/2003 16:55    1.71 11 13.00 3142 113.9 True x
3/30/2003 17:40    1.50 10 9.00 2417 65.2 True x
4/5/2003 16:45    1.71 10 14.00 3142 120.0 True x
4/13/2003 12:45    2.27 12 24.00 5432 362.5 True x
4/20/2003 10:20    1.73 16 14.00 3216 121.6 True x
4/27/2003 14:40    1.70 17 23.00 3105 201.0 True x
5/4/2003 11:45    1.91 15 21.00 3921 228.7 True x
5/11/2003 11:45    5.58 16 352.00 25220 24,021.2 True x
5/18/2003 15:20    3.45 16 124.00 11600 3,886.3 True x
5/26/2003 11:00    2.17 18 37.00 4999 503.1 True x
6/1/2003 10:15    2.32 16 82.00 5655 1,257.5 True x
6/8/2003 16:00    1.89 20 79.00 3839 820.1 True x
6/15/2003 16:45    3.14 23 234.00 9843 6,241.1 True x
6/22/2003 18:50    1.72 19 36.00 3179 315.6 True x
6/29/2003 16:35    1.53 24 31.00 2514 214.7 True x
7/6/2003 11:55    1.61 28 27.00 2785 205.1 True x
7/13/2003 16:00    5.75 23 99.00 26410 7,075.5 True x
7/27/2003 14:40    3.59 22 46.00 12400 1,556.0 True x
8/2/2003 10:15    2.65 24 32.00 7227 629.9 True x
8/10/2003 18:10    1.79 25 14.00 3443 130.9 True x
8/16/2003 11:55    1.35 27 11.00 1957 61.5 True x
8/25/2003 11:45    1.04 26 10.00 1160 33.1 True x
8/30/2003 12:45    1.00 25 13.00 1073 40.4 True x
9/7/2003 16:45    1.61 25 25.00 2785 195.5 True x
9/14/2003 14:20    1.07 22 15.00 1228 52.3 True x
9/21/2003 15:20    1.00 19 12.00 1073 35.9 True x
9/28/2003 15:00    1.05 14 10.00 1183 33.2 True x
10/5/2003 13:35    1.14 13 11.00 1395 44.4 True x
10/13/2003 12:00    1.05 16 7.00 1183 24.0 True x
10/19/2003 12:30    1.49 13 8.00 2384 57.1 True x
11/1/2003 10:00    1.45 11 9.00 2258 58.5 True x
11/8/2003 13:15    1.73 6.00 3216 57.0 True x
11/16/2003 10:40    1.60 10.00 2750 74.5 True x
11/23/2003 14:15    3.47 11 91.00 11720 2,890.7 True x
11/30/2003 08:30    3.04 25.00 9300 646.8 True x
12/7/2003 09:20    2.39 8.00 5973 144.5 True x
12/14/2003 11:15    2.83 17.00 8159 391.2 True x
12/21/2003 10:40    2.14 8.00 4872 117.1 True x
12/28/2003 13:00    2.65 54.00 7227 1,069.3 True x
1/4/2004 12:30    2.84 54.00 8212 1,201.4 True x
1/11/2004 11:40    2.35 20.00 5790 322.0 True x
1/25/2004 13:50    2.34 7.00 5745 114.2 True x
2/23/2004 12:50    2.52 18.00 6587 331.0 True x
2/29/2004 10:05    2.00 10.00 4300 121.6 True x
3/6/2004 11:30    3.92 141.00 14320 5,472.1 True x
3/13/2004 17:30    2.67 14.00 7328 285.7 True x
3/28/2004 09:55    3.25 12 62.00 10450 1,771.1 True x
4/4/2004 12:20    3.14 49.00 9843 1,318.0 True x
4/11/2004 11:10    2.05 12 15.00 4500 187.2 True x
4/18/2004 14:05    1.75 21 12.00 3291 110.7 True x
4/25/2004 09:00    1.85 15 14.00 3678 142.9 True x
5/8/2004 10:35    1.78 21 16.00 3405 147.2 True x
5/17/2004 12:50    2.76 21 57.00 7790 1,210.0 True x
5/22/2004 16:00    2.29 22 113.00 5520 1,697.1 True x
5/29/2004 13:20    2.35 19 63.00 5790 991.7 True x
6/13/2004 17:10    6.60 23 225.00 32520 19,759.0 True x
6/21/2004 10:05    4.35 21 71.00 17010 3,281.3 True x
6/28/2004 14:10    2.23 22 30.00 5256 439.2 True x
7/7/2004 10:45    1.60 24 13.00 2750 103.5 True x
7/11/2004 11:20    1.62 25 11.00 2819 86.3 True x
7/18/2004 12:10    1.45 24 24.00 2258 146.9 True x
7/25/2004 13:40    1.55 24 18.00 2581 126.8 True x
8/1/2004 13:10    1.21 25 12.00 1571 54.9 True x
8/8/2004 09:20    1.44 22 14.00 2227 89.8 True x
8/16/2004 10:50    1.01 21 10.00 1094 30.1 True x
8/22/2004 15:45    1.69 24 18.00 3069 152.3 True x
8/29/2004 17:40    4.50 22 156.00 18000 7,623.2 True x
9/6/2004 13:50    2.88 22 51.00 8427 1,174.7 True x
9/11/2004 10:35    2.30 21 27.00 5565 411.4 True x
9/20/2004 09:50    1.46 19 12.00 2289 76.0 True x
9/26/2004 15:00    1.33 21 11.00 1899 58.0 True x
10/3/2004 15:00    1.24 16 6.00 1650 31.2 True x
10/10/2004 14:15    1.25 15 8.00 1677 37.1 True x
10/16/2004 14:40    1.41 10 9.00 2135 56.4 True x
10/23/2004 13:35    1.52 16 7.00 2482 47.2 True x
10/30/2004 15:35    1.45 16 13.00 2258 80.8 True x
11/7/2004 14:55    3.30 13 67.00 10740 1,970.6 True x
11/14/2004 15:00    1.97 9.00 4172 105.9 True x
11/20/2004 14:30    2.23 11 60.00 5256 861.9 True x
11/28/2004 10:00    4.50 111.00 18000 5,434.4 True x
12/4/2004 12:30    4.74 53.00 19560 2,849.0 True x
12/12/2004 11:20    4.72 63.00 19430 3,356.0 True x
12/18/2004 16:10    2.94 15.00 8754 374.4 True x
1/1/2005 10:45    4.00 30.00 14800 1,236.0 True x
1/9/2005 08:50    4.65 56.00 18970 2,910.1 True x
1/15/2005 14:00    7.50 183.00 39290 19,462.8 True x
1/23/2005 13:30    4.00 24.00 14800 990.8 True x
1/29/2005 12:50    3.15 12.00 9898 346.8 True x
2/5/2005 12:55    2.50 17.00 6490 301.3 True x
2/13/2005 09:35    3.40 27.00 11310 825.5 True x
2/19/2005 14:05    4.34 39.00 16950 1,817.7 True x
2/26/2005 09:25    3.58 18.00 12350 626.1 True x
3/5/2005 14:35    2.93 35.00 8699 838.4 True x
3/13/2005 15:20    2.57 11.00 6830 211.0 True x
3/20/2005 17:05    2.31 30.00 5610 459.2 True x
3/28/2005 08:05    2.59 53.00 6928 1,009.1 True x
4/6/2005 14:00    2.32 15 45.00 5655 700.7 True x
4/10/2005 12:40    2.25 18 40.00 5344 583.3 True x
4/19/2005 16:25    2.23 20 66.00 5256 939.3 True x
4/24/2005 12:00    2.55 10 17.00 6732 326.0 True x
5/1/2005 09:50    2.01 12 37.00 4340 438.8 True x
5/8/2005 08:00    1.72 17 95.00 3179 818.6 True x
5/15/2005 11:00    1.67 17 124.00 2996 1,003.2 True x
5/23/2005 16:55    1.77 22 116.00 3367 1,056.8 True x
5/29/2005 18:20    1.43 20 106.00 2196 632.5 True x
6/4/2005 12:25    1.34 24 100.00 1928 525.7 True x
6/11/2005 15:30    1.69 29 26.00 3069 219.6 True x
6/18/2005 12:20    1.51 23 145.00 2449 963.4 True x
6/26/2005 10:10    0.94 31 16.00 947 43.4 True x
7/2/2005 18:00    0.81 28 17.00 703 33.3 True x
7/9/2005 12:00    0.74 31 20.00 586 33.1 True x
7/20/2005 11:40    0.80 31 21.00 686 39.6 True x
7/27/2005 09:00    1.43 27 19.00 2196 116.2 True x
8/2/2005 13:35    0.95 31 18.00 967 48.5 True x
8/9/2005 13:15    0.75 31 15.00 602 25.8 True x
8/16/2005 13:25    1.60 27 18.00 2750 137.1 True x
8/28/2005 11:50    1.03 27 5.00 1138 15.8 True x
9/5/2005 11:20    0.93 25 4.00 927 12.4 True x
9/12/2005 09:10    0.84 27 5.00 756 12.0 True x
9/18/2005 10:55    0.94 23 19.00 947 48.8 True x
9/25/2005 09:20    0.95 23 6.00 967 17.3 True x
10/3/2005 12:45    1.50 23 6.00 2417 39.6 True x
10/10/2005 12:00    1.07 17 11.00 1228 36.8 True x
10/17/2005 10:25    0.98 16 74.00 1030 208.3 True x
10/24/2005 10:15    1.09 11 112.00 1275 388.6 True x
10/31/2005 15:20    1.05 13 81.00 1183 259.6 True x
11/13/2005 13:20    1.37 12 77.00 2015 422.4 True x
11/19/2005 15:45    1.63 147.00 2854 1,132.8 True x
11/26/2005 10:45    1.39 100.00 2075 562.8 True x
12/3/2005 15:50    1.92 146.00 3962 1,565.4 True x
12/10/2005 12:45    2.03 147.00 4420 1,758.1 True x
12/25/2005 14:40    1.67 115.00 2996 933.6 True x
12/31/2005 11:40    2.56 68.00 6781 1,251.9 True x
1/8/2006 07:15    2.20 40.00 5127 554.1 True x
1/14/2006 10:10    2.14 95.00 4872 1,260.7 True x
1/21/2006 12:15    2.45 14.00 6253 247.2 True x
1/28/2006 13:10    2.38 13.00 5927 210.0 True x
2/4/2006 14:20    2.55 31.00 6732 577.4 True x
2/12/2006 07:30    2.00 69.00 4300 802.3 True x
2/17/2006 14:25    1.92 31.00 3962 334.8 True x
2/25/2006 11:05    1.94 9.00 4045 108.4 True x
3/11/2006 14:15    2.56 12 94.00 6781 1,731.5 True x
3/18/2006 11:50    4.00 88.00 14800 3,552.9 True x
4/2/2006 16:45    2.26 11 80.00 5388 1,178.2 True x
4/8/2006 11:35    2.50 13 37.00 6490 662.6 True x
4/15/2006 13:40    2.23 20 47.00 5256 674.4 True x
4/23/2006 15:10    3.30 18 69.00 10740 2,006.6 True x
4/30/2006 16:25    2.05 14 25.00 4500 311.1 True x
5/7/2006 07:10    2.33 15 31.00 5700 477.7 True x
5/14/2006 19:05    2.87 12 73.00 8373 1,671.4 True x
5/28/2006 14:05    3.22 21 81.00 10290 2,269.5 True x
6/4/2006 17:10    2.40 24 55.00 6020 898.7 True x
6/11/2006 16:40    1.91 19 90.00 3921 959.3 True x
6/19/2006 14:15    1.68 27 32.00 3032 269.7 True x
6/30/2006 16:15    1.39 28 72.00 2075 406.0 True x
7/8/2006 12:50    1.43 26 74.00 2196 443.5 True x
7/15/2006 12:15    2.41 29 54.00 6066 899.5 True x
7/22/2006 14:30    2.05 31 30.00 4500 369.4 True x
7/30/2006 10:45    1.94 31 18.00 4045 199.2 True x
8/6/2006 14:15    1.38 28 9.00 2045 53.9 True x
8/14/2006 10:30    2.02 26 48.00 4380 578.3 True x
9/3/2006 17:55    1.11 27 19.00 1322 69.1 True x
9/10/2006 13:30    1.72 25 63.00 3179 547.2 True x
9/17/2006 14:15    2.75 23 64.00 7738 1,355.4 True x
9/24/2006 11:00    1.77 18 21.00 3367 197.7 True x
9/29/2006 13:00    1.67 19 36.00 2996 294.0 True x
10/7/2006 12:00    2.37 17 34.00 5880 552.3 True x
10/16/2006 10:40    1.72 10 40.00 3180 349.1 True x
10/20/2006 17:20    3.97 12 162.00 14600 6,409.2 True x
10/23/2006 13:35    3.14 10 38.00 9840 1,018.0 True x
10/28/2006 16:20    2.47 10 215.00 6350 3,696.7 True x
11/6/2006 14:05    1.98 119.00 4210 1,354.6 True x
11/13/2006 09:15    2.24 10 181.00 5300 2,598.0 True x
11/19/2006 11:00    3.15 203.00 9900 5,440.0 True x
11/30/2006 10:15    2.90 138.00 8540 3,182.3 True x
12/7/2006 11:20    4.00 140.00 14800 5,597.2 True x
12/16/2006 14:20    3.47 168.00 11700 5,320.3 True x
12/30/2006 11:40    3.26 206.00 10500 5,863.4 True x
1/6/2007 15:20    4.89 178.00 20600 9,934.1 True x
1/19/2007 13:05    3.19 136.00 10100 3,722.0 True x
1/26/2007 16:15    3.05 136.00 9350 3,440.2 True x
3/10/2007 15:20    3.50 30.00 11900 966.1 True x
3/17/2007 13:00    3.30 39.00 10700 1,143.3 True x
3/24/2007 16:55    5.71 13 365.00 26100 25,774.9 True x
3/31/2007 13:25    3.99 15 45.00 14700 1,794.9 True x
4/7/2007 14:40    2.54 25.00 6680 465.7 True x
4/14/2007 13:00    3.25 26.00 10500 741.0 True x
4/22/2007 11:15    2.38 18 48.00 5930 778.0 True x
5/1/2007 11:30    3.90 18 41.00 14200 1,606.8 True x
5/25/2007 15:50    2.00 24 126.00 4300 1,465.8 True x
6/16/2007 17:10    1.30 24 15.00 1810 73.5 True x
6/20/2007 17:45    1.97 26 87.00 4170 982.6 True x
6/23/2007 18:15    1.27 24 14.00 1730 66.1 True x
6/30/2007 15:30    1.59 27 15.00 2720 113.7 True x
7/7/2007 18:00    1.30 30 17.00 1810 83.8 True x
7/22/2007 16:00    1.22 26 13.00 1600 60.3 True x
8/14/2007 15:15    1.05 24 15.00 1180 49.3 True x
8/24/2007 14:45    5.30 24 163.00 23300 10,267.9 True x
8/30/2007 15:10    2.82 25 13.00 8110 286.6 True x
9/6/2007 12:50    1.90 25 10.00 3880 114.8 True x
9/15/2007 09:10    1.56 23 4.00 2610 30.9 True x
9/30/2007 13:15    1.24 24 7.00 1650 32.6 True x
10/6/2007 15:25    1.33 24 8.00 1900 42.9 True x
10/13/2007 11:00    1.34 18 7.00 1930 38.1 True x
11/10/2007 14:15    1.29 59.00 1790 289.1 True x
11/21/2007 13:10    1.41 105.00 2130 608.5 True x
11/30/2007 10:50    2.04 136.00 4460 1,643.5 True x
12/6/2007 13:20    2.08 124.00 4620 1,555.3 True x
12/14/2007 11:30    4.47 84.00 17800 4,067.9 True x
12/22/2007 13:00    3.32 70.00 10900 2,069.3 True x
12/30/2007 12:30    3.01 75.00 9140 1,864.6 True x
1/11/2008 11:00    7.76 261.00 41300 29,121.4 True x
1/22/2008 14:10    5.46 75.00 24400 4,997.7 True x
2/25/2008 14:40    2.86 16.00 8320 363.2 True x
3/4/2008 11:30    3.00 17.00 9090 419.7 True x
3/15/2008 14:00    2.82 15.00 8110 343.3 True x
3/20/2008 13:10    3.57 19.00 12300 645.5 True x
3/26/2008 09:50    2.92 20.00 8640 473.8 True x
3/30/2008 13:30    3.33 19.00 10900 568.7 True x
4/5/2008 15:55    3.13 19.00 9790 503.9 True x
4/12/2008 14:35    3.90 23.00 14200 904.0 True x
4/19/2008 15:15    2.89 18.00 8480 415.6 True x
4/24/2008 15:00    2.52 181.00 6590 3,231.4 True x
4/28/2008 11:00    2.45 12.00 6250 202.9 True x
5/9/2008 11:30    2.21 14 98.00 5170 1,372.1 True x
5/14/2008 11:50    3.25 13 41.00 10500 1,182.3 True x
5/22/2008 13:00    2.22 15 64.00 5210 900.2 True x
5/31/2008 10:30    2.48 17 71.00 6400 1,233.7 True x
6/8/2008 10:50    4.74 18 47.00 19600 2,536.9 True x
6/15/2008 11:30    2.48 20 79.00 6400 1,366.6 True x
6/22/2008 11:30    1.95 21 51.00 4090 572.9 True x
7/6/2008 09:30    1.59 21 39.00 2720 293.0 True x
7/13/2008 14:30    1.64 25 7.00 2890 62.3 True x
7/20/2008 10:40    1.32  31.00 1870 156.8 True x
7/27/2008 08:15    1.10 22 33.00 1300 116.7 True x
8/3/2008 09:50    1.00 25 24.00 1070 69.3 True x
8/11/2008 11:10    2.07  38.00 4580 470.1 True x
8/19/2008 14:15    1.18  11.00 1490 45.0 True x
8/26/2008 12:25    0.95 23 15.00 968 39.9 True x
9/6/2008 12:10    1.55 22 74.00 2580 515.6 True x
9/16/2008 15:05    7.25  75.00 37400 7,573.1 True x
10/9/2008 11:18    2.29 15 8.00 5520 131.7 True x
10/24/2008 11:00    2.10 132.00 4710 1,685.1 True x
11/1/2008 12:10    2.15 147.00 4910 1,961.5 True x
11/17/2008 13:00    2.14 151.00 4870 1,991.9 True x
11/29/2008 14:15    2.02 151.00 4380 1,793.8 True x
12/10/2008 14:40    2.20 139.00 5130 1,931.4 True x
12/30/2008 14:00    6.08 147.00 28800 11,433.3 True x
1/4/2009 10:00    4.11 83.00 15500 3,513.3 True x
2/28/2009 10:30    4.01 107.00 14900 4,328.0 True x
3/10/2009 11:30    4.06 24.00 15200 990.4 True x
3/20/2009 12:15    3.70 10 47.00 13000 1,673.4 True x
3/28/2009 15:45    2.92 109.00 8640 2,551.7 True x
4/6/2009 13:00    4.70 24.00 19300 1,287.2 True x
4/15/2009 11:15    4.12 29.00 15500 1,246.1 True x
4/21/2009 16:20    3.57 21.00 12300 708.1 True x
4/29/2009 14:20    4.45 14 117.00 17700 5,629.3 True x
5/17/2009 09:45    6.35 15 167.00 30700 13,887.3 True x
5/24/2009 13:10    3.55 19 69.00 12200 2,283.7 True x
5/31/2009 14:00    2.60 21 74.00 6980 1,408.8 True x
6/8/2009 13:00    2.40 22 31.00 6020 514.6 True x
6/16/2009 10:50    2.31 24 209.00 5610 3,169.5 True x
6/25/2009 14:00    2.86 25 84.00 8320 1,902.0 True x
7/13/2009 09:50    1.81 25 18.00 3520 178.1 True x
7/25/2009 12:40    1.28 25 32.00 1760 156.4 True x
8/4/2009 13:30    1.07 24 20.00 1230 68.3 True x
8/12/2009 12:50    0.94 26 37.00 948 97.1 True x
8/19/2009 13:45    0.81 27 34.00 703 65.6 True x
8/27/2009 13:45    1.05 24 17.00 1180 55.9 True x
9/6/2009 09:10    1.12 23 18.00 1350 69.2 True x
9/13/2009 09:50    1.10 22 12.00 1300 44.0 True x
9/22/2009 14:30    1.08 22 12.00 1250 43.6 True x
9/29/2009 10:10    1.10 18 9.00 1300 31.8 True x
10/3/2009 15:00    1.06 14 9.00 1210 30.6 False x
10/9/2009 12:35    1.24 17.00 1650 79.4 False x
10/11/2009 10:10    1.26 85.00 1700 393.5 False x
10/24/2009 11:15    3.37 12 118.00 11100 3,560.8 False x
11/1/2009 09:45    5.30 11 176.00 23300 11,132.2 False x
11/8/2009 12:40    2.65 12 44.00 7230 873.5 False x
11/15/2009 10:15    2.00 10 96.00 4300 1,118.2 False x
11/22/2009 09:50    2.93 115.00 8700 2,703.1 False x
11/30/2009 16:15    2.60 152.00 6980 2,876.4 False x
12/7/2009 11:30    2.58 112.00 6880 2,090.7 False x
12/13/2009 12:20    2.54 97.00 6680 1,755.8 False x
12/20/2009 10:20    2.20 9.00 5130 127.7 False x
1/27/2010 12:10    4.40 94.00 17300 4,435.8 False x
2/3/2010 13:45    2.54 59.00 6680 1,071.7 False x
2/10/2010 12:50    1.95 75.00 4090 833.8 False x
2/15/2010 13:10    1.80 87.00 3480 824.3 False x
2/21/2010 09:25    1.82 66.00 3560 635.2 False x
2/28/2010 10:35    2.70 19.00 7480 389.9 False x
3/7/2010 10:15    2.72 10.00 7580 221.4 False x
3/14/2010 10:00    5.40 194.00 24000 12,597.1 False x
3/21/2010 09:55    3.40 31.00 11300 964.1 False x
3/28/2010 09:45    2.75 50.00 7740 1,061.0 False x
4/4/2010 10:35    2.60 14 72.00 6980 1,374.7 False x
4/11/2010 09:15    2.95 13 35.00 8810 835.9 False x
4/18/2010 10:00    2.25 15 69.00 5340 1,007.8 False x
4/27/2010 14:10    2.64 17 62.00 7180 1,210.3 False x
5/2/2010 10:00    2.45 18 11.00 6250 197.0 False x
5/9/2010 11:15    2.21 14 8.00 5170 122.9 False x
5/16/2010 10:45    3.47 15 56.00 11700 1,778.5 False x
5/23/2010 08:30    4.20 18 76.00 16100 3,346.0 False x
5/30/2010 09:30    3.20 23 47.00 10200 1,312.2 False x
6/6/2010 10:15    3.90 22 176.00 14200 6,759.0 False x
6/20/2010 11:00    2.44 25 97.00 6210 1,637.7 False x
7/11/2010 11:00    1.78 28 60.00 3400 555.2 False x
7/18/2010 09:45    1.61 28 42.00 2780 319.3 False x
7/25/2010 11:00    1.55 26 37.00 2580 261.3 False x
10/31/2010 10:45    0.91 12.00 888 29.2 False x
11/7/2010 11:30    0.88 6.00 830 14.6 False x
11/7/2010 12:40    1.17 10 62.00 1470 249.3 False x
11/15/2010 12:20    0.94 52.00 948 133.4 False x
11/21/2010 10:10    0.98 41.00 1030 114.4 False x
11/27/2010 09:15    1.25 33.00 1680 154.1 False x
12/6/2010 13:10    1.25 70.00 1680 318.2 False x
1/3/2011 15:25    3.05 10 139.00 9350 3,514.3 False x
1/10/2011 13:15    2.92 132.00 8640 3,080.6 False x
1/16/2011 09:15    3.12 113.00 9730 2,970.2 False x
2/23/2011 09:40    3.68 47.00 12900 1,651.2 False x
3/1/2011 10:00    4.21 37.00 16100 1,616.8 False x
3/6/2011 10:10    4.15 43.00 15700 1,853.9 False x
3/13/2011 08:35    3.77 44.00 13400 1,624.7 False x
3/21/2011 14:00    2.80 12 29.00 8000 638.4 False x
4/3/2011 09:30    2.10 10 124.00 4710 1,579.9 False x
4/20/2011 12:20    4.30 105.00 16700 4,736.0 False x
4/27/2011 13:00    6.65 14 137.00 32900 12,222.3 False x
6/12/2011 09:20    4.15 20 79.00 15700 3,356.3 False x
6/19/2011 09:30    3.54 22 68.00 12100 2,227.9 False x
7/3/2011 10:10    2.79 25 24.00 7950 533.8 False x
7/9/2011 12:30    2.28 26 21.00 5480 315.4 False x
7/16/2011 10:25    1.57 26 64.00 2650 462.5 False x
7/24/2011 15:30    1.67 29 15.00 3000 128.4 False x
10/2/2011 09:15    1.23 13 9.00 1620 43.7 False x
10/9/2011 09:00    1.15 17 9.00 1420 37.7 False x
10/16/2011 10:50    1.31 15 3.00 1840 18.8 False x
10/23/2011 11:00    1.65 12 12.00 2920 100.9 False x
10/30/2011 10:00    1.77 10 12.00 3370 112.0 False x
11/6/2011 10:40    1.52 10 8.00 2480 56.1 False x
11/13/2011 11:45    1.65 12 15.00 2920 124.8 False x
11/20/2011 12:35    1.75 9.00 3290 86.0 False x
11/27/2011 12:00    1.70 83.00 3110 697.4 False x
12/4/2011 11:55    2.41 18.00 6070 298.5 False x
12/11/2011 11:30    3.17 86.00 10000 2,337.6 False x
12/18/2011 11:55    3.90 85.00 14200 3,275.8 False x
12/27/2011 13:40    2.73 27.00 7630 575.6 False x
1/3/2012 11:20    2.48 11.00 6400 202.8 False x
1/15/2012 11:00    2.05 7.00 4500 91.5 False x
1/22/2012 10:05    4.70 23.00 19300 1,246.6 False x
1/30/2012 14:20    3.76 28.00 13400 1,039.1 False x
2/6/2012 11:30    3.10 79.00 9620 2,055.0 False x
2/12/2012 11:30    2.63 10 86.00 7130 1,673.2 False x
2/19/2012 11:15    2.40 95.00 6020 1,559.2 False x
2/26/2012 10:45    2.42 92.00 6110 1,520.6 False x
3/2/2012 10:10    2.50 87.00 6490 1,537.2 False x
3/11/2012 12:50    2.53 10 85.00 6630 1,538.9 False x
3/20/2012 14:20    2.35 21 82.00 5790 1,282.5 False x
3/28/2012 13:10    2.38 16 91.00 5930 1,458.7 False x
4/4/2012 12:05    1.78 16 84.00 3400 774.4 False x
4/11/2012 10:25    1.65 11 88.00 2920 695.6 False x
4/18/2012 10:50    1.60 12 89.00 2750 663.0 False x
4/29/2012 10:30    1.51 12 77.00 2450 512.4 False x
5/8/2012 14:45    6.10 18 492.00 28900 38,426.7 False x
5/13/2012 11:40    3.50 18 69.00 11900 2,222.1 False x
5/20/2012 11:35    2.00 24 67.00 4300 779.3 False x
5/26/2012 12:10    1.67 24 18.00 3000 149.1 False x
5/31/2012 10:30    1.63 20 16.00 2850 123.2 False x
6/4/2012 14:10    1.51  92.00 2450 613.8 False x
6/11/2012 13:00    1.23 26 92.00 1620 403.7 False x
6/18/2012 13:30    3.43 25 131.00 11500 4,076.7 False x
6/25/2012 14:10    1.27 26 17.00 1730 81.1 False x
7/1/2012 11:20    1.00 28 21.00 1070 61.6 False x
7/9/2012 13:40    0.72 30 16.00 555 24.1 False x
7/16/2012 11:45    0.73 30 14.00 571 22.0 False x
7/23/2012 14:30    0.78 29 13.00 652 24.4 False x
7/31/2012 12:00    0.74 30 5.00 587 9.3 False x
8/12/2012 11:30    1.03  9.00 1140 27.8 False x
8/19/2012 13:15    1.03 25 8.00 1140 26.0 False x
8/27/2012 12:05    0.98 26 5.00 1030 15.9 False x
9/4/2012 12:55    1.16 27 6.00 1440 23.4 False x
9/9/2012 13:15    1.04 22 5.00 1160 17.1 False x
9/16/2012 14:30    0.91 25 2.00 888 4.9 False x
9/24/2012 13:30    0.88 17 2.00 830 5.3 False x
10/3/2012 14:00    1.00 19 4.00 1070 13.3 False x
10/7/2012 11:50    0.94 13 2.00 948 5.4 False x
10/14/2012 11:45    1.05 15 2.00 1180 8.0 False x
10/23/2012 12:55    1.37 15 4.00 2020 25.7 False x
10/30/2012 13:00    1.62 12 4.00 2820 33.7 False x
11/4/2012 12:45    1.25 92.00 1680 419.3 False x
11/12/2012 15:00    1.20 1.00 1550 6.9 False x
11/18/2012 14:30    1.20 83.00 1550 349.5 False x
11/26/2012 14:10    1.15 79.00 1420 305.8 False x
12/6/2012 14:00    1.35  99.00 1960 525.0 False x
12/9/2012 14:10    1.50 91.00 2420 600.7 False x
12/16/2012 14:00    1.33  23.00 1900 121.8 False x
12/18/2012 14:00    1.33 94.00 1900 483.6 False x
12/30/2012 14:10    1.65 72.00 2920 574.3 False x
1/28/2013 14:30    1.82 149.00 3560 1,436.8 False x
2/5/2013 14:20    3.00 57.00 9090 1,414.9 False x
2/11/2013 13:35    2.63 82.00 7130 1,586.8 False x
2/17/2013 13:00    2.47 89.00 6350 1,541.8 False x
2/24/2013 13:45    2.08 103.00 4620 1,292.4 False x
3/3/2013 13:15    3.05 48.00 9350 1,225.8 False x
3/10/2013 13:10    3.29 28.00 10700 826.6 False x
3/17/2013 13:00    3.35 26.00 11000 775.9 False x
3/24/2013 12:40    2.80 107.00 8000 2,320.9 False x
4/1/2013 13:20    2.68 108.00 7380 2,165.6 False x
4/7/2013 13:00    2.06 13 103.00 4540 1,271.3 False x
4/14/2013 14:15    4.12 10 97.00 15500 4,081.1 False x
4/21/2013 15:45    6.40 10 186.00 31100 15,664.5 False x
4/28/2013 10:45    4.40 13 29.00 17300 1,393.0 False x
5/7/2013 12:15    2.53 19 160.00 6630 2,874.1 False x
5/13/2013 11:50    2.37 15 126.00 5880 2,008.5 False x
5/20/2013 13:00    2.38 24 48.00 5930 772.4 False x
5/27/2013 11:50    2.48 16 107.00 6400 1,865.7 False x
6/2/2013 12:00    2.92 25 101.00 8640 2,358.6 False x
6/12/2013 13:30    2.89 25 40.00 8480 928.3 False x
6/19/2013 11:50    2.80 24 49.00 8000 1,078.7 False x
6/25/2013 13:30    5.57 19 53.00 25200 3,650.0 False x
7/1/2013 13:35    2.65 25 44.00 7230 874.9 False x
7/8/2013 13:05    2.44 24 157.00 6210 2,648.9 False x
8/4/2013 13:00    1.62 26 10.00 2820 79.4 False x
8/10/2013 12:10    1.41 26 10.00 2130 60.2 False x
8/20/2013 11:15    1.03 28 9.00 1140 29.0 False x
8/28/2013 11:50    0.82 29 9.00 721 18.2 False x
9/10/2013 12:45    0.70 29 89.00 525 127.2 False x
9/13/2013 12:00    0.72 21 27.00 555 41.0 False x
9/22/2013 12:20    1.34 20 17.00 1930 93.3 False x
9/29/2013 12:10    1.07 20 10.00 1230 33.8 False x
10/6/2013 13:30    1.61 21 105.00 2780 795.3 False x
10/13/2013 12:45    1.24 17 77.00 1650 344.8 False x
10/21/2013 12:45    1.39 16 26.00 2070 149.8 False x
11/3/2013 12:10    1.69 10 9.00 3070 76.8 False x
11/10/2013 13:00    1.66 10 122.00 2960 981.6 False x
11/18/2013 12:20    1.60 79.00 2750 590.3 False x
11/24/2013 11:50    1.78 80.00 3400 739.9 False x
12/1/2013 12:20    1.72 82.00 3180 705.6 False x
12/22/2013 12:30    1.92 90.00 3960 967.4 False x
12/29/2013 11:05    2.35 13.00 5790 208.4 False x
3/10/2014 12:15    5.31 68.00 23400 4,305.7 False x
3/16/2014 12:45    4.85 126.00 20300 6,913.6 False x
3/23/2014 12:00    3.62 22.00 12600 770.8 False x
3/30/2014 13:00    3.17 45.00 10000 1,236.3 False x
4/7/2014 12:15    4.42 124.00 17500 5,890.1 False x
4/13/2014 12:40    3.12 15 59.00 9730 1,574.3 False x
4/21/2014 12:05    2.40 15 36.00 6020 587.8 False x
4/27/2014 12:20    2.22 15 102.00 5210 1,440.3 False x
5/5/2014 12:50    2.32 15 49.00 5650 752.9 False x
5/15/2014 12:20    4.83 12 66.00 20200 3,615.2 False x
5/21/2014 13:30    3.81 19 114.00 13700 4,246.8 False x
5/26/2014 13:15    2.60 22 97.00 6980 1,839.1 False x
6/2/2014 13:05    2.33 23 37.00 5700 570.8 False x
6/12/2014 15:40    4.75 20 100.00 19600 5,300.7 False x
6/17/2014 14:30    3.92 21 62.00 14300 2,429.5 False x
6/24/2014 13:20    4.45 24 72.00 17700 3,456.3 False x
6/29/2014 11:40    4.81 24 53.00 20000 2,911.1 False x
7/10/2014 13:45    2.47 25 85.00 6350 1,471.2 False x
7/14/2014 14:00    3.65 25 41.00 12700 1,421.0 False x
7/21/2014 11:35    2.00 25 86.00 4300 1,007.3 False x
9/3/2014 14:35    3.10 25 105.00 9620 2,739.9 False x
9/9/2014 12:50    2.23 22 26.00 5260 380.0 False x
9/16/2014 13:50    3.35 17 62.00 11000 1,852.5 False x
9/22/2014 13:05    2.55 18 101.00 6730 1,838.6 False x
9/30/2014 13:00    1.95 19 133.00 4090 1,477.1 False x
10/6/2014 13:00    4.10 13 69.00 15400 2,885.5 False x
10/13/2014 13:20    2.88 14 10.00 8430 238.6 False x
10/30/2014 13:00    2.24 12 118.00 5300 1,700.0 False x
11/5/2014 14:05    2.08 12 62.00 4620 780.7 False x
11/30/2014 11:05    3.25 75.00 10500 2,148.0 False x
12/10/2014 13:35    2.33 96.00 5700 1,480.3 False x
12/14/2014 12:05    2.30 51.00 5560 772.2 False x
12/21/2014 12:40    2.15 61.00 4910 819.3 False x
12/29/2014 12:25    3.00 26.00 9090 658.9 False x
3/21/2015 18:15    2.83 10 12.00 8160 273.2 False x
4/12/2015 12:35    2.30 15 44.00 5560 668.1 False x
4/20/2015 15:30    2.33 12 116.00 5700 1,788.4 False x
4/26/2015 11:50    2.95 11 133.00 8810 3,185.6 False x
5/3/2015 12:10    2.15 19 93.00 4910 1,235.9 False x
5/17/2015 12:10    3.18 19 106.00 10100 2,907.4 False x
5/31/2015 13:35    2.55 17 109.00 6730 1,993.5 False x
6/18/2015 15:10    6.95 22 89.00 35100 8,509.3 False x
6/30/2015 16:05    7.32 21 61.00 37900 6,324.5 False x
7/12/2015 13:30    6.35 21 74.00 30700 6,194.9 False x
7/21/2015 14:55    4.35 25 36.00 17000 1,669.3 False x
8/2/2015 10:55    2.38 25 15.00 5930 248.5 False x
8/16/2015 14:10    1.65 28 59.00 2920 468.4 False x
8/24/2015 15:25    1.77 24 14.00 3370 136.4 False x
8/31/2015 13:50    1.45 24 77.00 2260 475.0 False x
9/4/2015 15:20    1.42 28 113.00 2170 667.5 False x
9/19/2015 11:55    3.58 20 115.00 12300 3,852.0 False x
9/27/2015 13:50    1.85 22 20.00 3680 203.9 False x
10/4/2015 13:10    1.48 15 84.00 2350 537.9 False x
10/15/2015 13:40    1.25 14 84.00 1680 381.3 False x
11/1/2015 14:10    1.53 15 11.00 2510 79.2 False x
11/12/2015 14:15    1.47 73.00 2320 459.7 False x
11/20/2015 15:05    2.04 59.00 4460 717.2 False x
12/4/2015 14:45    2.50 50.00 6490 877.8 False x
12/16/2015 13:50    2.95 10 51.00 8810 1,213.5 False x
1/3/2016 15:20    5.85 66.00 27100 4,862.6 False x
1/30/2016 10:40    3.46 119.00 11700 3,790.2 False x
2/9/2016 15:25    2.60 119.00 6980 2,253.6 False x
2/17/2016 15:00    2.05 86.00 4500 1,047.7 False x
2/22/2016 15:35    1.94 118.00 4050 1,295.7 False x
3/3/2016 12:30    3.10 101.00 9620 2,626.4 False x
3/14/2016 15:10    3.95 11 112.00 14500 4,399.4 False x
4/1/2016 15:15    3.40 10 124.00 11300 3,793.6 False x

Data Set Parameters and Explanation

Help with downloading, csv files, printing, and more





Illinois State Water Survey

2204 Griffith Dr
Champaign, IL 61820-7463
217-244-5459
info@isws.illinois.edu

Terms of use. Email the Web Administrator with questions or comments.

© 2017 University of Illinois Board of Trustees. All rights reserved.
For permissions information, contact the Illinois State Water Survey.
Site Map